Wetterdaten: Samstag, 03.08.2019
Datum Zeit Temp. Aussen Temp. o. S. +5cm Feuchte Auss Luftdruck Regen Sonnenschein Regendauer Solar Windben Empfang
03.08.2019 00:00 17,4 C 16,1 C 16,1 C 98 % 1015,0 hPa 0,0 l/m 0 min 0 min 0 W/m 3,2 km/h (1 Bft) 91,49 %
03.08.2019 00:02 17,4 C 16,1 C 16,1 C 98 % 1015,0 hPa 0,0 l/m 0 min 0 min 0 W/m 3,2 km/h (1 Bft) 97,44 %
03.08.2019 00:04 17,4 C 16,1 C 16,1 C 98 % 1014,9 hPa 0,0 l/m 0 min 0 min 0 W/m 6,4 km/h (2 Bft) 93,62 %
03.08.2019 00:08 17,4 C 16,1 C 16,1 C 98 % 1015,0 hPa 0,0 l/m 0 min 0 min 0 W/m 3,2 km/h (1 Bft) 91,40 %
03.08.2019 00:10 17,4 C 16,1 C 16,1 C 98 % 1015,0 hPa 0,0 l/m 0 min 0 min 0 W/m 6,4 km/h (2 Bft) 93,62 %
03.08.2019 00:12 17,4 C 16,1 C 16,1 C 98 % 1015,0 hPa 0,0 l/m 0 min 0 min 0 W/m 3,2 km/h (1 Bft) 93,62 %
03.08.2019 00:14 17,4 C 16,1 C 16,1 C 98 % 1015,0 hPa 0,0 l/m 0 min 0 min 0 W/m 9,7 km/h (2 Bft) 91,49 %
03.08.2019 00:16 17,4 C 16,1 C 16,1 C 98 % 1015,0 hPa 0,0 l/m 0 min 0 min 0 W/m 3,2 km/h (1 Bft) 93,62 %
03.08.2019 00:18 17,4 C 16,1 C 16,1 C 98 % 1015,0 hPa 0,0 l/m 0 min 0 min 0 W/m 3,2 km/h (1 Bft) 93,62 %
03.08.2019 00:20 17,4 C 16,1 C 16,1 C 98 % 1015,1 hPa 0,0 l/m 0 min 0 min 0 W/m 6,4 km/h (2 Bft) 93,48 %
03.08.2019 00:22 17,4 C 16,1 C 16,1 C 98 % 1015,1 hPa 0,0 l/m 0 min 0 min 0 W/m 3,2 km/h (1 Bft) 93,62 %
03.08.2019 00:24 17,4 C 16,1 C 16,1 C 98 % 1015,1 hPa 0,0 l/m 0 min 0 min 0 W/m 6,4 km/h (2 Bft) 93,62 %
03.08.2019 00:26 17,3 C 16,1 C 16,1 C 98 % 1015,1 hPa 0,0 l/m 0 min 0 min 0 W/m 3,2 km/h (1 Bft) 95,74 %
03.08.2019 00:28 17,3 C 16,1 C 16,1 C 98 % 1015,1 hPa 0,0 l/m 0 min 0 min 0 W/m 9,7 km/h (2 Bft) 95,74 %
03.08.2019 00:30 17,3 C 16,1 C 16,1 C 98 % 1015,1 hPa 0,0 l/m 0 min 0 min 0 W/m 9,7 km/h (2 Bft) 93,48 %
03.08.2019 00:32 17,3 C 16,1 C 16,1 C 98 % 1015,1 hPa 0,0 l/m 0 min 0 min 0 W/m 6,4 km/h (2 Bft) 93,62 %
03.08.2019 00:34 17,3 C 16,1 C 16,1 C 98 % 1015,1 hPa 0,0 l/m 0 min 0 min 0 W/m 3,2 km/h (1 Bft) 93,62 %
03.08.2019 00:36 17,3 C 16,1 C 16,1 C 98 % 1015,1 hPa 0,0 l/m 0 min 0 min 0 W/m 0,0 km/h (0 Bft) 95,74 %
03.08.2019 00:38 17,2 C 16,1 C 16,1 C 98 % 1015,1 hPa 0,0 l/m 0 min 0 min 0 W/m 6,4 km/h (2 Bft) 95,74 %
03.08.2019 00:40 17,2 C 16,1 C 15,6 C 98 % 1015,1 hPa 0,0 l/m 0 min 0 min 0 W/m 9,7 km/h (2 Bft) 95,74 %
03.08.2019 00:42 17,2 C 16,1 C 15,6 C 98 % 1015,1 hPa 0,0 l/m 0 min 0 min 0 W/m 9,7 km/h (2 Bft) 97,83 %
03.08.2019 00:44 17,2 C 16,1 C 15,6 C 98 % 1015,1 hPa 0,0 l/m 0 min 0 min 0 W/m 9,7 km/h (2 Bft) 95,74 %
03.08.2019 00:46 17,2 C 16,1 C 15,6 C 98 % 1015,1 hPa 0,0 l/m 0 min 0 min 0 W/m 6,4 km/h (2 Bft) 100,00 %
03.08.2019 00:48 17,2 C 16,1 C 15,6 C 98 % 1015,1 hPa 0,0 l/m 0 min 0 min 0 W/m 6,4 km/h (2 Bft) 100,00 %
03.08.2019 00:50 17,1 C 16,1 C 15,6 C 98 % 1015,1 hPa 0,0 l/m 0 min 0 min 0 W/m 6,4 km/h (2 Bft) 100,00 %
03.08.2019 00:52 17,1 C 15,6 C 15,6 C 98 % 1015,1 hPa 0,0 l/m 0 min 0 min 0 W/m 6,4 km/h (2 Bft) 100,00 %
03.08.2019 00:54 17,1 C 15,6 C 15,6 C 98 % 1015,2 hPa 0,0 l/m 0 min 0 min 0 W/m 0,0 km/h (0 Bft) 100,00 %
03.08.2019 00:56 17,1 C 15,6 C 15,6 C 98 % 1015,2 hPa 0,0 l/m 0 min 0 min 0 W/m 3,2 km/h (1 Bft) 100,00 %
03.08.2019 00:58 17,1 C 15,6 C 15,6 C 98 % 1015,2 hPa 0,0 l/m 0 min 0 min 0 W/m 3,2 km/h (1 Bft) 95,74 %
03.08.2019 01:00 17,1 C 15,6 C 15,6 C 98 % 1015,2 hPa 0,0 l/m 0 min 0 min 0 W/m 3,2 km/h (1 Bft) 100,00 %
03.08.2019 01:02 17,0 C 15,6 C 15,6 C 98 % 1015,2 hPa 0,0 l/m 0 min 0 min 0 W/m 6,4 km/h (2 Bft) 100,00 %
03.08.2019 01:04 17,0 C 15,6 C 15,6 C 98 % 1015,2 hPa 0,0 l/m 0 min 0 min 0 W/m 3,2 km/h (1 Bft) 100,00 %
03.08.2019 01:06 16,9 C 15,6 C 15,6 C 98 % 1015,2 hPa 0,0 l/m 0 min 0 min 0 W/m 0,0 km/h (0 Bft) 100,00 %
03.08.2019 01:08 16,9 C 15,6 C 15,6 C 98 % 1015,2 hPa 0,0 l/m 0 min 0 min 0 W/m 0,0 km/h (0 Bft) 100,00 %
03.08.2019 01:10 16,9 C 15,6 C 15,6 C 98 % 1015,3 hPa 0,0 l/m 0 min 0 min 0 W/m 6,4 km/h (2 Bft) 100,00 %
03.08.2019 01:12 16,9 C 15,6 C 15,6 C 98 % 1015,3 hPa 0,0 l/m 0 min 0 min 0 W/m 3,2 km/h (1 Bft) 97,87 %
03.08.2019 01:14 16,9 C 15,6 C 15,6 C 98 % 1015,3 hPa 0,0 l/m 0 min 0 min 0 W/m 3,2 km/h (1 Bft) 97,87 %
03.08.2019 01:16 16,9 C 15,6 C 15,6 C 98 % 1015,3 hPa 0,0 l/m 0 min 0 min 0 W/m 3,2 km/h (1 Bft) 100,00 %
03.08.2019 01:18 16,9 C 15,6 C 15,6 C 98 % 1015,3 hPa 0,0 l/m 0 min 0 min 0 W/m 0,0 km/h (0 Bft) 100,00 %
03.08.2019 01:20 16,8 C 15,6 C 15,6 C 98 % 1015,2 hPa 0,0 l/m 0 min 0 min 0 W/m 9,7 km/h (2 Bft) 100,00 %
03.08.2019 01:22 16,8 C 15,6 C 15,6 C 98 % 1015,3 hPa 0,0 l/m 0 min 0 min 0 W/m 6,4 km/h (2 Bft) 97,87 %
03.08.2019 01:24 16,8 C 15,6 C 15,6 C 98 % 1015,2 hPa 0,0 l/m 0 min 0 min 0 W/m 3,2 km/h (1 Bft) 100,00 %
03.08.2019 01:26 16,8 C 15,6 C 15,6 C 98 % 1015,3 hPa 0,0 l/m 0 min 0 min 0 W/m 6,4 km/h (2 Bft) 100,00 %
03.08.2019 01:28 16,8 C 15,6 C 15,6 C 98 % 1015,3 hPa 0,0 l/m 0 min 0 min 0 W/m 6,4 km/h (2 Bft) 100,00 %
03.08.2019 01:30 16,8 C 15,6 C 15,6 C 98 % 1015,3 hPa 0,0 l/m 0 min 0 min 0 W/m 0,0 km/h (0 Bft) 100,00 %
03.08.2019 01:32 16,7 C 15,6 C 15,6 C 98 % 1015,4 hPa 0,0 l/m 0 min 0 min 0 W/m 0,0 km/h (0 Bft) 100,00 %
03.08.2019 01:34 16,7 C 15,6 C 15,0 C 98 % 1015,4 hPa 0,0 l/m 0 min 0 min 0 W/m 9,7 km/h (2 Bft) 100,00 %
03.08.2019 01:36 16,7 C 15,6 C 15,0 C 98 % 1015,4 hPa 0,0 l/m 0 min 0 min 0 W/m 6,4 km/h (2 Bft) 100,00 %
03.08.2019 01:38 16,7 C 15,6 C 15,0 C 98 % 1015,3 hPa 0,0 l/m 0 min 0 min 0 W/m 6,4 km/h (2 Bft) 100,00 %
03.08.2019 01:40 16,7 C 15,6 C 15,0 C 98 % 1015,3 hPa 0,0 l/m 0 min 0 min 0 W/m 9,7 km/h (2 Bft) 100,00 %
03.08.2019 01:42 16,7 C 15,6 C 15,0 C 98 % 1015,3 hPa 0,0 l/m 0 min 0 min 0 W/m 6,4 km/h (2 Bft) 100,00 %
03.08.2019 01:44 16,7 C 15,6 C 15,6 C 98 % 1015,4 hPa 0,0 l/m 0 min 0 min 0 W/m 6,4 km/h (2 Bft) 100,00 %
03.08.2019 01:46 16,7 C 15,6 C 15,0 C 98 % 1015,4 hPa 0,0 l/m 0 min 0 min 0 W/m 9,7 km/h (2 Bft) 100,00 %
03.08.2019 01:48 16,7 C 15,6 C 15,6 C 98 % 1015,4 hPa 0,0 l/m 0 min 0 min 0 W/m 9,7 km/h (2 Bft) 97,87 %
03.08.2019 01:50 16,6 C 15,6 C 15,0 C 98 % 1015,4 hPa 0,0 l/m 0 min 0 min 0 W/m 16,1 km/h (3 Bft) 100,00 %
03.08.2019 01:52 16,7 C 15,6 C 15,0 C 98 % 1015,5 hPa 0,0 l/m 0 min 0 min 0 W/m 3,2 km/h (1 Bft) 100,00 %
03.08.2019 01:54 16,6 C 15,6 C 15,0 C 98 % 1015,4 hPa 0,0 l/m 0 min 0 min 0 W/m 0,0 km/h (0 Bft) 100,00 %
03.08.2019 01:56 16,6 C 15,6 C 15,0 C 98 % 1015,4 hPa 0,0 l/m 0 min 0 min 0 W/m 3,2 km/h (1 Bft) 100,00 %
03.08.2019 01:58 16,6 C 15,6 C 15,0 C 98 % 1015,5 hPa 0,0 l/m 0 min 0 min 0 W/m 3,2 km/h (1 Bft) 97,87 %
03.08.2019 02:00 16,6 C 15,6 C 15,0 C 98 % 1015,5 hPa 0,0 l/m 0 min 0 min 0 W/m 0,0 km/h (0 Bft) 100,00 %
03.08.2019 02:02 16,6 C 15,6 C 15,0 C 98 % 1015,4 hPa 0,0 l/m 0 min 0 min 0 W/m 0,0 km/h (0 Bft) 100,00 %
03.08.2019 02:04 16,6 C 15,6 C 15,0 C 98 % 1015,5 hPa 0,0 l/m 0 min 0 min 0 W/m 3,2 km/h (1 Bft) 100,00 %
03.08.2019 02:06 16,6 C 15,6 C 15,0 C 98 % 1015,5 hPa 0,0 l/m 0 min 0 min 0 W/m 3,2 km/h (1 Bft) 97,87 %
03.08.2019 02:08 16,6 C 15,6 C 15,0 C 98 % 1015,4 hPa 0,0 l/m 0 min 0 min 0 W/m 9,7 km/h (2 Bft) 100,00 %
03.08.2019 02:10 16,6 C 15,6 C 15,0 C 98 % 1015,4 hPa 0,0 l/m 0 min 0 min 0 W/m 0,0 km/h (0 Bft) 100,00 %
03.08.2019 02:12 16,6 C 15,6 C 15,0 C 98 % 1015,4 hPa 0,0 l/m 0 min 0 min 0 W/m 6,4 km/h (2 Bft) 100,00 %
03.08.2019 02:14 16,6 C 15,6 C 15,0 C 98 % 1015,4 hPa 0,0 l/m 0 min 0 min 0 W/m 3,2 km/h (1 Bft) 100,00 %
03.08.2019 02:16 16,6 C 15,6 C 15,0 C 98 % 1015,4 hPa 0,0 l/m 0 min 0 min 0 W/m 3,2 km/h (1 Bft) 100,00 %
03.08.2019 02:18 16,6 C 15,6 C 15,0 C 98 % 1015,4 hPa 0,0 l/m 0 min 0 min 0 W/m 6,4 km/h (2 Bft) 100,00 %
03.08.2019 02:20 16,6 C 15,6 C 15,0 C 98 % 1015,5 hPa 0,0 l/m 0 min 0 min 0 W/m 0,0 km/h (0 Bft) 100,00 %
03.08.2019 02:22 16,6 C 15,6 C 15,6 C 98 % 1015,4 hPa 0,0 l/m 0 min 0 min 0 W/m 6,4 km/h (2 Bft) 100,00 %
03.08.2019 02:24 16,6 C 15,6 C 15,6 C 98 % 1015,5 hPa 0,0 l/m 0 min 0 min 0 W/m 6,4 km/h (2 Bft) 100,00 %
03.08.2019 02:26 16,6 C 15,6 C 15,6 C 98 % 1015,4 hPa 0,0 l/m 0 min 0 min 0 W/m 0,0 km/h (0 Bft) 100,00 %
03.08.2019 02:28 16,6 C 15,6 C 15,6 C 98 % 1015,4 hPa 0,0 l/m 0 min 0 min 0 W/m 19,3 km/h (3 Bft) 100,00 %
03.08.2019 02:30 16,6 C 15,6 C 15,6 C 98 % 1015,4 hPa 0,0 l/m 0 min 0 min 0 W/m 6,4 km/h (2 Bft) 100,00 %
03.08.2019 02:32 16,6 C 15,6 C 15,6 C 98 % 1015,5 hPa 0,0 l/m 0 min 0 min 0 W/m 6,4 km/h (2 Bft) 100,00 %
03.08.2019 02:34 16,6 C 15,6 C 15,6 C 98 % 1015,5 hPa 0,0 l/m 0 min 0 min 0 W/m 3,2 km/h (1 Bft) 97,87 %
03.08.2019 02:36 16,6 C 15,6 C 15,6 C 98 % 1015,5 hPa 0,0 l/m 0 min 0 min 0 W/m 3,2 km/h (1 Bft) 95,74 %
03.08.2019 02:38 16,7 C 15,6 C 15,6 C 98 % 1015,4 hPa 0,0 l/m 0 min 0 min 0 W/m 6,4 km/h (2 Bft) 95,74 %
03.08.2019 02:40 16,7 C 15,6 C 15,6 C 98 % 1015,5 hPa 0,0 l/m 0 min 0 min 0 W/m 3,2 km/h (1 Bft) 95,65 %
03.08.2019 02:42 16,7 C 15,6 C 15,6 C 98 % 1015,4 hPa 0,0 l/m 0 min 0 min 0 W/m 3,2 km/h (1 Bft) 95,74 %
03.08.2019 02:44 16,7 C 15,6 C 15,6 C 98 % 1015,4 hPa 0,0 l/m 0 min 0 min 0 W/m 6,4 km/h (2 Bft) 95,74 %
03.08.2019 02:46 16,7 C 15,6 C 15,6 C 99 % 1015,4 hPa 0,0 l/m 0 min 0 min 0 W/m 3,2 km/h (1 Bft) 95,74 %
03.08.2019 02:48 16,7 C 15,6 C 15,6 C 99 % 1015,4 hPa 0,0 l/m 0 min 0 min 0 W/m 3,2 km/h (1 Bft) 93,62 %
03.08.2019 02:50 16,7 C 15,6 C 15,6 C 99 % 1015,4 hPa 0,0 l/m 0 min 0 min 0 W/m 3,2 km/h (1 Bft) 97,83 %
03.08.2019 02:52 16,7 C 15,6 C 15,6 C 99 % 1015,4 hPa 0,0 l/m 0 min 0 min 0 W/m 16,1 km/h (3 Bft) 97,87 %
03.08.2019 02:54 16,8 C 15,6 C 15,6 C 99 % 1015,4 hPa 0,0 l/m 0 min 0 min 0 W/m 3,2 km/h (1 Bft) 95,74 %
03.08.2019 02:56 16,8 C 15,6 C 15,6 C 99 % 1015,4 hPa 0,0 l/m 0 min 0 min 0 W/m 3,2 km/h (1 Bft) 95,74 %
03.08.2019 02:58 16,8 C 15,6 C 15,6 C 99 % 1015,4 hPa 0,0 l/m 0 min 0 min 0 W/m 6,4 km/h (2 Bft) 91,49 %
03.08.2019 03:00 16,7 C 15,6 C 15,6 C 99 % 1015,4 hPa 0,0 l/m 0 min 0 min 0 W/m 9,7 km/h (2 Bft) 91,49 %
03.08.2019 03:02 16,7 C 15,6 C 15,6 C 99 % 1015,4 hPa 0,0 l/m 0 min 0 min 0 W/m 3,2 km/h (1 Bft) 93,48 %
03.08.2019 03:04 16,7 C 15,6 C 15,6 C 99 % 1015,3 hPa 0,0 l/m 0 min 0 min 0 W/m 3,2 km/h (1 Bft) 93,62 %
03.08.2019 03:06 16,7 C 15,6 C 15,6 C 99 % 1015,4 hPa 0,0 l/m 0 min 0 min 0 W/m 3,2 km/h (1 Bft) 93,62 %
03.08.2019 03:08 16,7 C 15,6 C 15,6 C 99 % 1015,3 hPa 0,0 l/m 0 min 0 min 0 W/m 6,4 km/h (2 Bft) 93,62 %
03.08.2019 03:10 16,7 C 15,6 C 15,6 C 99 % 1015,4 hPa 0,0 l/m 0 min 0 min 0 W/m 9,7 km/h (2 Bft) 93,62 %
03.08.2019 03:12 16,8 C 15,6 C 15,6 C 99 % 1015,4 hPa 0,0 l/m 0 min 0 min 0 W/m 6,4 km/h (2 Bft) 93,62 %
03.08.2019 03:14 16,8 C 15,6 C 15,6 C 99 % 1015,4 hPa 0,0 l/m 0 min 0 min 0 W/m 3,2 km/h (1 Bft) 93,48 %
03.08.2019 03:16 16,8 C 15,6 C 15,6 C 99 % 1015,4 hPa 0,0 l/m 0 min 0 min 0 W/m 9,7 km/h (2 Bft) 91,49 %
03.08.2019 03:18 16,8 C 15,6 C 15,6 C 99 % 1015,4 hPa 0,0 l/m 0 min 0 min 0 W/m 3,2 km/h (1 Bft) 93,62 %
03.08.2019 03:20 16,8 C 15,6 C 15,6 C 99 % 1015,4 hPa 0,0 l/m 0 min 0 min 0 W/m 6,4 km/h (2 Bft) 97,87 %
03.08.2019 03:22 16,8 C 15,6 C 15,6 C 99 % 1015,4 hPa 0,0 l/m 0 min 0 min 0 W/m 3,2 km/h (1 Bft) 93,62 %
03.08.2019 03:24 16,8 C 15,6 C 15,6 C 99 % 1015,5 hPa 0,0 l/m 0 min 0 min 0 W/m 9,7 km/h (2 Bft) 95,74 %
03.08.2019 03:26 16,8 C 15,6 C 15,6 C 99 % 1015,4 hPa 0,0 l/m 0 min 0 min 0 W/m 3,2 km/h (1 Bft) 95,65 %
03.08.2019 03:28 16,8 C 15,6 C 15,6 C 99 % 1015,4 hPa 0,0 l/m 0 min 0 min 0 W/m 6,4 km/h (2 Bft) 95,74 %
03.08.2019 03:30 16,8 C 15,6 C 15,6 C 99 % 1015,4 hPa 0,0 l/m 0 min 0 min 0 W/m 3,2 km/h (1 Bft) 93,62 %
03.08.2019 03:32 16,7 C 15,6 C 15,6 C 99 % 1015,5 hPa 0,0 l/m 0 min 0 min 0 W/m 3,2 km/h (1 Bft) 91,49 %
03.08.2019 03:34 16,7 C 15,6 C 15,6 C 99 % 1015,5 hPa 0,0 l/m 0 min 0 min 0 W/m 6,4 km/h (2 Bft) 93,62 %
03.08.2019 03:36 16,7 C 15,6 C 15,6 C 99 % 1015,4 hPa 0,0 l/m 0 min 0 min 0 W/m 12,9 km/h (3 Bft) 95,65 %
03.08.2019 03:38 16,7 C 15,6 C 15,6 C 99 % 1015,5 hPa 0,0 l/m 0 min 0 min 0 W/m 9,7 km/h (2 Bft) 93,62 %
03.08.2019 03:40 16,7 C 15,6 C 15,6 C 99 % 1015,7 hPa 0,0 l/m 0 min 0 min 0 W/m 0,0 km/h (0 Bft) 95,74 %
03.08.2019 03:42 16,7 C 15,6 C 15,6 C 99 % 1015,5 hPa 0,0 l/m 0 min 0 min 0 W/m 9,7 km/h (2 Bft) 93,62 %
03.08.2019 03:44 16,7 C 15,6 C 15,6 C 99 % 1015,6 hPa 0,0 l/m 0 min 0 min 0 W/m 6,4 km/h (2 Bft) 95,74 %
03.08.2019 03:46 16,7 C 15,6 C 15,6 C 99 % 1015,6 hPa 0,0 l/m 0 min 0 min 0 W/m 6,4 km/h (2 Bft) 93,62 %
03.08.2019 03:48 16,7 C 15,6 C 15,6 C 99 % 1015,6 hPa 0,0 l/m 0 min 0 min 0 W/m 3,2 km/h (1 Bft) 93,48 %
03.08.2019 03:50 16,7 C 15,6 C 15,6 C 99 % 1015,6 hPa 0,0 l/m 0 min 0 min 0 W/m 12,9 km/h (3 Bft) 97,87 %
03.08.2019 03:52 16,7 C 15,6 C 15,6 C 99 % 1015,7 hPa 0,0 l/m 0 min 0 min 0 W/m 9,7 km/h (2 Bft) 100,00 %
03.08.2019 03:54 16,7 C 15,6 C 15,6 C 99 % 1015,7 hPa 0,0 l/m 0 min 0 min 0 W/m 6,4 km/h (2 Bft) 100,00 %
03.08.2019 03:56 16,7 C 15,6 C 15,6 C 99 % 1015,7 hPa 0,0 l/m 0 min 0 min 0 W/m 3,2 km/h (1 Bft) 100,00 %
03.08.2019 03:58 16,7 C 15,6 C 15,6 C 99 % 1015,7 hPa 0,0 l/m 0 min 0 min 0 W/m 6,4 km/h (2 Bft) 100,00 %
03.08.2019 04:00 16,7 C 15,6 C 15,6 C 99 % 1015,7 hPa 0,0 l/m 0 min 0 min 0 W/m 6,4 km/h (2 Bft) 100,00 %
03.08.2019 04:05 16,7 C 15,6 C 15,6 C 99 % 1015,7 hPa 0,0 l/m 0 min 0 min 0 W/m 3,2 km/h (1 Bft) 98,46 %
03.08.2019 04:06 16,7 C 15,6 C 15,6 C 99 % 1015,7 hPa 0,0 l/m 0 min 0 min 0 W/m 0,0 km/h (0 Bft) 100,00 %
03.08.2019 04:08 16,7 C 15,6 C 15,6 C 99 % 1015,8 hPa 0,0 l/m 0 min 0 min 0 W/m 6,4 km/h (2 Bft) 97,67 %
03.08.2019 04:10 16,7 C 15,6 C 15,6 C 99 % 1015,7 hPa 0,0 l/m 0 min 0 min 0 W/m 0,0 km/h (0 Bft) 100,00 %
03.08.2019 04:12 16,7 C 15,6 C 15,6 C 99 % 1015,8 hPa 0,0 l/m 0 min 0 min 0 W/m 3,2 km/h (1 Bft) 100,00 %
03.08.2019 04:14 16,7 C 15,6 C 15,6 C 99 % 1015,7 hPa 0,0 l/m 0 min 0 min 0 W/m 0,0 km/h (0 Bft) 100,00 %
03.08.2019 04:16 16,7 C 15,6 C 15,6 C 99 % 1015,7 hPa 0,0 l/m 0 min 0 min 0 W/m 0,0 km/h (0 Bft) 95,74 %
03.08.2019 04:18 16,7 C 15,6 C 15,6 C 99 % 1015,7 hPa 0,0 l/m 0 min 0 min 0 W/m 9,7 km/h (2 Bft) 100,00 %
03.08.2019 04:20 16,7 C 15,6 C 15,6 C 99 % 1015,8 hPa 0,0 l/m 0 min 0 min 0 W/m 3,2 km/h (1 Bft) 100,00 %
03.08.2019 04:22 16,7 C 15,6 C 15,6 C 99 % 1015,7 hPa 0,0 l/m 0 min 0 min 0 W/m 6,4 km/h (2 Bft) 97,83 %
03.08.2019 04:24 16,7 C 15,6 C 15,6 C 99 % 1015,8 hPa 0,0 l/m 0 min 0 min 0 W/m 0,0 km/h (0 Bft) 100,00 %
03.08.2019 04:26 16,7 C 15,6 C 15,6 C 99 % 1015,8 hPa 0,0 l/m 0 min 0 min 0 W/m 6,4 km/h (2 Bft) 100,00 %
03.08.2019 04:28 16,7 C 15,6 C 15,6 C 99 % 1015,8 hPa 0,0 l/m 0 min 0 min 0 W/m 6,4 km/h (2 Bft) 100,00 %
03.08.2019 04:30 16,7 C 15,6 C 15,6 C 99 % 1015,7 hPa 0,0 l/m 0 min 0 min 0 W/m 6,4 km/h (2 Bft) 100,00 %
03.08.2019 04:32 16,7 C 15,6 C 15,6 C 99 % 1015,8 hPa 0,0 l/m 0 min 0 min 0 W/m 3,2 km/h (1 Bft) 100,00 %
03.08.2019 04:34 16,7 C 15,6 C 15,6 C 99 % 1015,8 hPa 0,0 l/m 0 min 0 min 0 W/m 3,2 km/h (1 Bft) 97,83 %
03.08.2019 04:36 16,7 C 15,6 C 15,6 C 99 % 1015,8 hPa 0,0 l/m 0 min 0 min 0 W/m 3,2 km/h (1 Bft) 97,87 %
03.08.2019 04:38 16,7 C 15,6 C 15,6 C 99 % 1015,8 hPa 0,0 l/m 0 min 0 min 0 W/m 3,2 km/h (1 Bft) 100,00 %
03.08.2019 04:40 16,7 C 15,6 C 15,6 C 99 % 1015,8 hPa 0,0 l/m 0 min 0 min 0 W/m 3,2 km/h (1 Bft) 100,00 %
03.08.2019 04:42 16,7 C 15,6 C 15,6 C 99 % 1015,8 hPa 0,0 l/m 0 min 0 min 0 W/m 6,4 km/h (2 Bft) 97,87 %
03.08.2019 04:44 16,7 C 15,6 C 15,6 C 99 % 1015,8 hPa 0,0 l/m 0 min 0 min 0 W/m 3,2 km/h (1 Bft) 100,00 %
03.08.2019 04:46 16,7 C 15,6 C 15,6 C 99 % 1015,9 hPa 0,0 l/m 0 min 0 min 0 W/m 3,2 km/h (1 Bft) 100,00 %
03.08.2019 04:48 16,7 C 15,6 C 15,6 C 99 % 1015,8 hPa 0,0 l/m 0 min 0 min 0 W/m 0,0 km/h (0 Bft) 100,00 %
03.08.2019 04:50 16,7 C 15,6 C 15,6 C 99 % 1015,8 hPa 0,0 l/m 0 min 0 min 0 W/m 0,0 km/h (0 Bft) 100,00 %
03.08.2019 04:52 16,7 C 15,6 C 15,6 C 99 % 1015,8 hPa 0,0 l/m 0 min 0 min 0 W/m 3,2 km/h (1 Bft) 100,00 %
03.08.2019 04:54 16,7 C 15,6 C 15,6 C 99 % 1015,9 hPa 0,0 l/m 0 min 0 min 0 W/m 6,4 km/h (2 Bft) 100,00 %
03.08.2019 04:56 16,7 C 15,6 C 15,6 C 99 % 1015,9 hPa 0,0 l/m 0 min 0 min 0 W/m 3,2 km/h (1 Bft) 100,00 %
03.08.2019 04:58 16,7 C 15,6 C 15,6 C 99 % 1015,9 hPa 0,0 l/m 0 min 0 min 0 W/m 3,2 km/h (1 Bft) 100,00 %
03.08.2019 05:00 16,7 C 15,6 C 15,6 C 99 % 1016,0 hPa 0,0 l/m 0 min 0 min 0 W/m 3,2 km/h (1 Bft) 100,00 %
03.08.2019 05:02 16,7 C 15,6 C 15,6 C 99 % 1016,0 hPa 0,0 l/m 0 min 0 min 0 W/m 3,2 km/h (1 Bft) 100,00 %
03.08.2019 05:04 16,7 C 15,6 C 15,6 C 99 % 1016,0 hPa 0,0 l/m 0 min 0 min 0 W/m 3,2 km/h (1 Bft) 100,00 %
03.08.2019 05:06 16,7 C 15,6 C 15,6 C 99 % 1016,0 hPa 0,0 l/m 0 min 0 min 0 W/m 6,4 km/h (2 Bft) 97,87 %
03.08.2019 05:08 16,7 C 15,6 C 15,6 C 99 % 1016,1 hPa 0,0 l/m 0 min 0 min 0 W/m 3,2 km/h (1 Bft) 100,00 %
03.08.2019 05:10 16,7 C 15,6 C 15,6 C 99 % 1016,0 hPa 0,0 l/m 0 min 0 min 0 W/m 3,2 km/h (1 Bft) 97,83 %
03.08.2019 05:12 16,7 C 15,6 C 15,6 C 99 % 1015,9 hPa 0,0 l/m 0 min 0 min 0 W/m 6,4 km/h (2 Bft) 95,74 %
03.08.2019 05:14 16,7 C 15,6 C 15,6 C 99 % 1016,0 hPa 0,0 l/m 0 min 0 min 0 W/m 6,4 km/h (2 Bft) 97,87 %
03.08.2019 05:16 16,7 C 15,6 C 15,6 C 99 % 1016,0 hPa 0,0 l/m 0 min 0 min 0 W/m 9,7 km/h (2 Bft) 97,87 %
03.08.2019 05:18 16,7 C 15,6 C 15,6 C 99 % 1016,1 hPa 0,0 l/m 0 min 0 min 0 W/m 3,2 km/h (1 Bft) 95,74 %
03.08.2019 05:20 16,8 C 15,6 C 15,6 C 99 % 1016,1 hPa 0,0 l/m 0 min 0 min 0 W/m 6,4 km/h (2 Bft) 97,83 %
03.08.2019 05:22 16,7 C 15,6 C 15,6 C 99 % 1016,1 hPa 0,0 l/m 0 min 0 min 0 W/m 3,2 km/h (1 Bft) 97,87 %
03.08.2019 05:24 16,7 C 15,6 C 15,6 C 99 % 1016,2 hPa 0,0 l/m 0 min 0 min 0 W/m 3,2 km/h (1 Bft) 97,87 %
03.08.2019 05:26 16,7 C 15,6 C 15,6 C 99 % 1016,1 hPa 0,0 l/m 0 min 0 min 0 W/m 3,2 km/h (1 Bft) 95,74 %
03.08.2019 05:28 16,7 C 15,6 C 15,6 C 99 % 1016,2 hPa 0,0 l/m 0 min 0 min 0 W/m 3,2 km/h (1 Bft) 97,87 %
03.08.2019 05:30 16,7 C 15,6 C 15,6 C 99 % 1016,2 hPa 0,0 l/m 0 min 0 min 0 W/m 6,4 km/h (2 Bft) 97,87 %
03.08.2019 05:32 16,7 C 15,6 C 15,6 C 99 % 1016,2 hPa 0,0 l/m 0 min 0 min 0 W/m 6,4 km/h (2 Bft) 97,83 %
03.08.2019 05:34 16,7 C 15,6 C 15,6 C 99 % 1016,2 hPa 0,0 l/m 0 min 0 min 0 W/m 3,2 km/h (1 Bft) 97,87 %
03.08.2019 05:36 16,7 C 15,6 C 15,6 C 99 % 1016,2 hPa 0,0 l/m 0 min 0 min 0 W/m 9,7 km/h (2 Bft) 95,74 %
03.08.2019 05:38 16,7 C 15,6 C 15,6 C 99 % 1016,3 hPa 0,0 l/m 0 min 0 min 0 W/m 0,0 km/h (0 Bft) 97,87 %
03.08.2019 05:40 16,7 C 15,6 C 15,6 C 99 % 1016,2 hPa 0,0 l/m 0 min 0 min 0 W/m 9,7 km/h (2 Bft) 95,74 %
03.08.2019 05:42 16,7 C 15,6 C 15,6 C 99 % 1016,3 hPa 0,0 l/m 0 min 0 min 0 W/m 3,2 km/h (1 Bft) 93,62 %
03.08.2019 05:44 16,7 C 15,6 C 15,6 C 99 % 1016,3 hPa 0,0 l/m 0 min 0 min 0 W/m 0,0 km/h (0 Bft) 95,65 %
03.08.2019 05:46 16,7 C 15,6 C 15,6 C 99 % 1016,3 hPa 0,0 l/m 0 min 0 min 0 W/m 0,0 km/h (0 Bft) 97,87 %
03.08.2019 05:48 16,6 C 15,6 C 15,6 C 99 % 1016,3 hPa 0,0 l/m 0 min 0 min 0 W/m 0,0 km/h (0 Bft) 93,62 %
03.08.2019 05:50 16,7 C 15,6 C 15,6 C 99 % 1016,3 hPa 0,0 l/m 0 min 0 min 0 W/m 0,0 km/h (0 Bft) 95,74 %
03.08.2019 05:52 16,6 C 15,6 C 15,6 C 99 % 1016,4 hPa 0,0 l/m 0 min 0 min 0 W/m 3,2 km/h (1 Bft) 93,62 %
03.08.2019 05:54 16,6 C 15,6 C 15,6 C 99 % 1016,4 hPa 0,0 l/m 0 min 0 min 0 W/m 3,2 km/h (1 Bft) 97,87 %
03.08.2019 05:56 16,6 C 15,6 C 15,6 C 99 % 1016,4 hPa 0,0 l/m 0 min 0 min 0 W/m 9,7 km/h (2 Bft) 97,83 %
03.08.2019 05:58 16,6 C 15,6 C 15,6 C 99 % 1016,4 hPa 0,0 l/m 0 min 0 min 0 W/m 3,2 km/h (1 Bft) 97,87 %
03.08.2019 06:00 16,6 C 15,6 C 15,6 C 99 % 1016,4 hPa 0,0 l/m 0 min 0 min 0 W/m 9,7 km/h (2 Bft) 97,87 %
03.08.2019 06:02 16,6 C 15,6 C 15,6 C 99 % 1016,4 hPa 0,0 l/m 0 min 0 min 0 W/m 0,0 km/h (0 Bft) 97,87 %
03.08.2019 06:04 16,6 C 15,6 C 15,6 C 99 % 1016,4 hPa 0,0 l/m 0 min 0 min 0 W/m 9,7 km/h (2 Bft) 97,87 %
03.08.2019 06:08 16,6 C 15,6 C 15,6 C 99 % 1016,5 hPa 0,0 l/m 0 min 0 min 0 W/m 3,2 km/h (1 Bft) 97,85 %
03.08.2019 06:10 16,6 C 15,6 C 15,6 C 99 % 1016,5 hPa 0,0 l/m 0 min 0 min 0 W/m 3,2 km/h (1 Bft) 97,87 %
03.08.2019 06:12 16,6 C 15,6 C 15,6 C 99 % 1016,5 hPa 0,0 l/m 0 min 0 min 0 W/m 0,0 km/h (0 Bft) 97,87 %
03.08.2019 06:14 16,6 C 15,6 C 15,6 C 99 % 1016,5 hPa 0,0 l/m 0 min 0 min 0 W/m 3,2 km/h (1 Bft) 95,74 %
03.08.2019 06:16 16,6 C 15,6 C 15,6 C 99 % 1016,5 hPa 0,0 l/m 0 min 0 min 0 W/m 3,2 km/h (1 Bft) 97,87 %
03.08.2019 06:18 16,6 C 15,6 C 15,6 C 99 % 1016,5 hPa 0,0 l/m 0 min 0 min 0 W/m 3,2 km/h (1 Bft) 95,65 %
03.08.2019 06:20 16,6 C 15,6 C 15,6 C 99 % 1016,6 hPa 0,0 l/m 0 min 0 min 0 W/m 6,4 km/h (2 Bft) 93,62 %
03.08.2019 06:22 16,6 C 15,6 C 15,6 C 99 % 1016,6 hPa 0,0 l/m 0 min 0 min 3 W/m 6,4 km/h (2 Bft) 93,62 %
03.08.2019 06:24 16,6 C 15,6 C 15,6 C 99 % 1016,6 hPa 0,0 l/m 0 min 0 min 5 W/m 3,2 km/h (1 Bft) 95,74 %
03.08.2019 06:26 16,6 C 15,6 C 15,6 C 99 % 1016,6 hPa 0,0 l/m 0 min 0 min 7 W/m 3,2 km/h (1 Bft) 95,74 %
03.08.2019 06:28 16,6 C 15,6 C 15,6 C 99 % 1016,6 hPa 0,0 l/m 0 min 0 min 7 W/m 0,0 km/h (0 Bft) 95,74 %
03.08.2019 06:30 16,6 C 15,6 C 15,6 C 99 % 1016,6 hPa 0,0 l/m 0 min 0 min 7 W/m 6,4 km/h (2 Bft) 95,65 %
03.08.2019 06:32 16,6 C 15,6 C 15,6 C 99 % 1016,6 hPa 0,0 l/m 0 min 0 min 9 W/m 3,2 km/h (1 Bft) 93,62 %
03.08.2019 06:34 16,6 C 15,6 C 15,6 C 99 % 1016,6 hPa 0,0 l/m 0 min 0 min 11 W/m 3,2 km/h (1 Bft) 95,74 %
03.08.2019 06:36 16,5 C 15,6 C 15,6 C 99 % 1016,7 hPa 0,0 l/m 0 min 0 min 11 W/m 0,0 km/h (0 Bft) 95,74 %
03.08.2019 06:38 16,5 C 15,6 C 15,0 C 99 % 1016,7 hPa 0,0 l/m 0 min 0 min 12 W/m 3,2 km/h (1 Bft) 96,30 %
03.08.2019 06:40 16,5 C 15,6 C 15,0 C 99 % 1016,7 hPa 0,0 l/m 0 min 0 min 13 W/m 3,2 km/h (1 Bft) 95,74 %
03.08.2019 06:42 16,4 C 15,6 C 15,0 C 99 % 1016,6 hPa 0,0 l/m 0 min 0 min 14 W/m 3,2 km/h (1 Bft) 93,48 %
03.08.2019 06:44 16,4 C 15,6 C 15,0 C 99 % 1016,7 hPa 0,0 l/m 0 min 0 min 15 W/m 3,2 km/h (1 Bft) 93,62 %
03.08.2019 06:46 16,4 C 15,6 C 15,0 C 99 % 1016,7 hPa 0,0 l/m 0 min 0 min 17 W/m 0,0 km/h (0 Bft) 93,62 %
03.08.2019 06:48 16,4 C 15,6 C 15,0 C 99 % 1016,7 hPa 0,0 l/m 0 min 0 min 19 W/m 0,0 km/h (0 Bft) 95,74 %
03.08.2019 06:50 16,4 C 15,6 C 15,0 C 99 % 1016,8 hPa 0,0 l/m 0 min 0 min 21 W/m 3,2 km/h (1 Bft) 95,74 %
03.08.2019 06:52 16,4 C 15,6 C 15,0 C 99 % 1016,8 hPa 0,0 l/m 0 min 0 min 24 W/m 0,0 km/h (0 Bft) 97,87 %
03.08.2019 06:54 16,4 C 15,6 C 15,0 C 99 % 1016,8 hPa 0,0 l/m 0 min 0 min 27 W/m 0,0 km/h (0 Bft) 97,83 %
03.08.2019 06:56 16,4 C 15,6 C 15,0 C 99 % 1016,8 hPa 0,0 l/m 0 min 0 min 31 W/m 0,0 km/h (0 Bft) 97,87 %
03.08.2019 06:58 16,4 C 15,6 C 15,0 C 99 % 1016,8 hPa 0,0 l/m 0 min 0 min 33 W/m 6,4 km/h (2 Bft) 97,87 %
03.08.2019 07:00 16,3 C 15,6 C 15,0 C 99 % 1016,8 hPa 0,0 l/m 0 min 0 min 35 W/m 9,7 km/h (2 Bft) 97,87 %
03.08.2019 07:02 16,3 C 15,6 C 15,0 C 99 % 1016,8 hPa 0,0 l/m 0 min 0 min 35 W/m 6,4 km/h (2 Bft) 95,74 %
03.08.2019 07:04 16,3 C 15,6 C 15,0 C 99 % 1016,9 hPa 0,0 l/m 0 min 0 min 35 W/m 3,2 km/h (1 Bft) 97,87 %
03.08.2019 07:06 16,3 C 15,6 C 15,0 C 99 % 1016,9 hPa 0,0 l/m 0 min 0 min 36 W/m 3,2 km/h (1 Bft) 97,83 %
03.08.2019 07:08 16,3 C 15,6 C 15,0 C 99 % 1016,9 hPa 0,0 l/m 0 min 0 min 35 W/m 0,0 km/h (0 Bft) 97,87 %
03.08.2019 07:10 16,3 C 15,6 C 15,0 C 99 % 1016,9 hPa 0,0 l/m 0 min 0 min 32 W/m 3,2 km/h (1 Bft) 93,62 %
03.08.2019 07:12 16,3 C 15,6 C 15,0 C 99 % 1016,9 hPa 0,0 l/m 0 min 0 min 32 W/m 0,0 km/h (0 Bft) 97,87 %
03.08.2019 07:14 16,3 C 15,6 C 15,0 C 99 % 1016,9 hPa 0,0 l/m 0 min 0 min 33 W/m 3,2 km/h (1 Bft) 97,87 %
03.08.2019 07:16 16,3 C 15,6 C 15,6 C 99 % 1017,0 hPa 0,0 l/m 0 min 0 min 33 W/m 0,0 km/h (0 Bft) 97,83 %
03.08.2019 07:18 16,3 C 15,6 C 15,6 C 99 % 1017,0 hPa 0,0 l/m 0 min 0 min 31 W/m 0,0 km/h (0 Bft) 100,00 %
03.08.2019 07:20 16,3 C 15,6 C 15,6 C 99 % 1017,0 hPa 0,0 l/m 0 min 0 min 30 W/m 6,4 km/h (2 Bft) 95,74 %
03.08.2019 07:22 16,3 C 15,6 C 15,6 C 99 % 1016,9 hPa 0,0 l/m 0 min 0 min 28 W/m 0,0 km/h (0 Bft) 97,87 %
03.08.2019 07:24 16,3 C 15,6 C 15,6 C 99 % 1017,0 hPa 0,0 l/m 0 min 0 min 28 W/m 0,0 km/h (0 Bft) 100,00 %
03.08.2019 07:26 16,3 C 15,6 C 15,6 C 99 % 1017,0 hPa 0,0 l/m 0 min 0 min 31 W/m 3,2 km/h (1 Bft) 100,00 %
03.08.2019 07:28 16,3 C 15,6 C 15,0 C 99 % 1017,0 hPa 0,0 l/m 0 min 0 min 32 W/m 0,0 km/h (0 Bft) 95,65 %
03.08.2019 07:30 16,3 C 15,6 C 15,6 C 99 % 1017,0 hPa 0,0 l/m 0 min 0 min 34 W/m 3,2 km/h (1 Bft) 97,87 %
03.08.2019 07:32 16,3 C 15,6 C 15,6 C 99 % 1017,0 hPa 0,0 l/m 0 min 0 min 35 W/m 3,2 km/h (1 Bft) 100,00 %
03.08.2019 07:34 16,3 C 15,6 C 15,6 C 99 % 1017,0 hPa 0,0 l/m 0 min 0 min 37 W/m 3,2 km/h (1 Bft) 97,87 %
03.08.2019 07:36 16,3 C 15,6 C 15,6 C 99 % 1017,1 hPa 0,0 l/m 0 min 0 min 39 W/m 9,7 km/h (2 Bft) 100,00 %
03.08.2019 07:38 16,3 C 15,6 C 15,6 C 99 % 1017,1 hPa 0,0 l/m 0 min 0 min 40 W/m 0,0 km/h (0 Bft) 100,00 %
03.08.2019 07:40 16,3 C 15,6 C 15,6 C 99 % 1017,1 hPa 0,0 l/m 0 min 0 min 40 W/m 0,0 km/h (0 Bft) 100,00 %
03.08.2019 07:42 16,3 C 15,6 C 15,6 C 99 % 1017,2 hPa 0,0 l/m 0 min 0 min 36 W/m 0,0 km/h (0 Bft) 100,00 %
03.08.2019 07:44 16,3 C 15,6 C 15,6 C 99 % 1017,2 hPa 0,0 l/m 0 min 0 min 35 W/m 0,0 km/h (0 Bft) 97,87 %
03.08.2019 07:46 16,4 C 16,1 C 15,6 C 99 % 1017,2 hPa 0,0 l/m 0 min 0 min 35 W/m 0,0 km/h (0 Bft) 100,00 %
03.08.2019 07:48 16,4 C 16,1 C 15,6 C 99 % 1017,2 hPa 0,0 l/m 0 min 0 min 35 W/m 0,0 km/h (0 Bft) 97,87 %
03.08.2019 07:50 16,4 C 15,6 C 15,6 C 99 % 1017,2 hPa 0,0 l/m 0 min 0 min 35 W/m 9,7 km/h (2 Bft) 97,87 %
03.08.2019 07:52 16,4 C 15,6 C 15,6 C 99 % 1017,2 hPa 0,0 l/m 0 min 0 min 35 W/m 6,4 km/h (2 Bft) 91,30 %
03.08.2019 07:54 16,4 C 15,6 C 15,0 C 99 % 1017,2 hPa 0,0 l/m 0 min 0 min 35 W/m 3,2 km/h (1 Bft) 97,87 %
03.08.2019 07:56 16,3 C 15,6 C 15,0 C 99 % 1017,1 hPa 0,0 l/m 0 min 0 min 39 W/m 3,2 km/h (1 Bft) 97,87 %
03.08.2019 07:58 16,3 C 15,6 C 15,6 C 99 % 1017,2 hPa 0,0 l/m 0 min 0 min 44 W/m 0,0 km/h (0 Bft) 95,74 %
03.08.2019 08:00 16,3 C 16,1 C 15,6 C 99 % 1017,2 hPa 0,0 l/m 0 min 0 min 46 W/m 0,0 km/h (0 Bft) 97,87 %
03.08.2019 08:02 16,4 C 16,1 C 15,6 C 99 % 1017,2 hPa 0,0 l/m 0 min 0 min 48 W/m 0,0 km/h (0 Bft) 95,74 %
03.08.2019 08:04 16,4 C 16,1 C 15,6 C 99 % 1017,2 hPa 0,0 l/m 0 min 0 min 51 W/m 0,0 km/h (0 Bft) 97,83 %
03.08.2019 08:06 16,4 C 16,1 C 15,6 C 99 % 1017,2 hPa 0,0 l/m 0 min 0 min 54 W/m 3,2 km/h (1 Bft) 97,87 %
03.08.2019 08:08 16,4 C 16,1 C 15,6 C 99 % 1017,3 hPa 0,0 l/m 0 min 0 min 54 W/m 0,0 km/h (0 Bft) 95,74 %
03.08.2019 08:10 16,4 C 16,1 C 15,6 C 99 % 1017,2 hPa 0,0 l/m 0 min 0 min 53 W/m 6,4 km/h (2 Bft) 97,87 %
03.08.2019 08:12 16,4 C 16,1 C 15,6 C 99 % 1017,2 hPa 0,0 l/m 0 min 0 min 54 W/m 3,2 km/h (1 Bft) 97,87 %
03.08.2019 08:14 16,4 C 16,1 C 15,6 C 99 % 1017,3 hPa 0,0 l/m 0 min 0 min 54 W/m 0,0 km/h (0 Bft) 97,87 %
03.08.2019 08:16 16,4 C 16,1 C 15,6 C 99 % 1017,3 hPa 0,0 l/m 0 min 0 min 58 W/m 3,2 km/h (1 Bft) 95,65 %
03.08.2019 08:18 16,4 C 16,1 C 15,6 C 99 % 1017,3 hPa 0,0 l/m 0 min 0 min 63 W/m 3,2 km/h (1 Bft) 97,87 %
03.08.2019 08:20 16,4 C 16,1 C 15,6 C 99 % 1017,3 hPa 0,0 l/m 0 min 0 min 65 W/m 6,4 km/h (2 Bft) 97,87 %
03.08.2019 08:22 16,4 C 16,1 C 15,6 C 99 % 1017,3 hPa 0,0 l/m 0 min 0 min 67 W/m 0,0 km/h (0 Bft) 97,87 %
03.08.2019 08:24 16,5 C 16,7 C 15,6 C 99 % 1017,3 hPa 0,0 l/m 0 min 0 min 70 W/m 3,2 km/h (1 Bft) 97,87 %
03.08.2019 08:26 16,5 C 16,1 C 15,6 C 99 % 1017,3 hPa 0,0 l/m 0 min 0 min 77 W/m 3,2 km/h (1 Bft) 95,65 %
03.08.2019 08:28 16,5 C 16,7 C 15,6 C 99 % 1017,4 hPa 0,0 l/m 0 min 0 min 83 W/m 3,2 km/h (1 Bft) 95,74 %
03.08.2019 08:30 16,5 C 16,7 C 15,6 C 99 % 1017,4 hPa 0,0 l/m 0 min 0 min 83 W/m 9,7 km/h (2 Bft) 95,74 %
03.08.2019 08:32 16,6 C 16,7 C 15,6 C 99 % 1017,3 hPa 0,0 l/m 0 min 0 min 84 W/m 0,0 km/h (0 Bft) 97,87 %
03.08.2019 08:34 16,6 C 16,7 C 15,6 C 99 % 1017,3 hPa 0,0 l/m 0 min 0 min 85 W/m 0,0 km/h (0 Bft) 100,00 %
03.08.2019 08:36 16,6 C 16,7 C 15,6 C 99 % 1017,3 hPa 0,0 l/m 0 min 0 min 87 W/m 0,0 km/h (0 Bft) 97,87 %
03.08.2019 08:38 16,6 C 16,7 C 16,1 C 99 % 1017,3 hPa 0,0 l/m 0 min 0 min 90 W/m 0,0 km/h (0 Bft) 97,83 %
03.08.2019 08:40 16,6 C 16,7 C 16,1 C 99 % 1017,3 hPa 0,0 l/m 0 min 0 min 99 W/m 9,7 km/h (2 Bft) 100,00 %
03.08.2019 08:42 16,6 C 17,2 C 16,1 C 99 % 1017,3 hPa 0,0 l/m 0 min 0 min 113 W/m 0,0 km/h (0 Bft) 100,00 %
03.08.2019 08:44 16,6 C 17,2 C 16,1 C 99 % 1017,4 hPa 0,0 l/m 0 min 0 min 122 W/m 6,4 km/h (2 Bft) 97,87 %
03.08.2019 08:46 16,7 C 17,2 C 16,1 C 99 % 1017,4 hPa 0,0 l/m 0 min 0 min 119 W/m 0,0 km/h (0 Bft) 97,87 %
03.08.2019 08:48 16,7 C 17,2 C 16,1 C 99 % 1017,3 hPa 0,0 l/m 0 min 0 min 114 W/m 0,0 km/h (0 Bft) 97,87 %
03.08.2019 08:50 16,7 C 17,2 C 16,1 C 99 % 1017,4 hPa 0,0 l/m 0 min 0 min 115 W/m 3,2 km/h (1 Bft) 100,00 %
03.08.2019 08:52 16,8 C 17,2 C 16,1 C 99 % 1017,3 hPa 0,0 l/m 0 min 0 min 116 W/m 0,0 km/h (0 Bft) 97,87 %
03.08.2019 08:54 16,8 C 17,2 C 16,1 C 99 % 1017,4 hPa 0,0 l/m 0 min 0 min 118 W/m 3,2 km/h (1 Bft) 97,87 %
03.08.2019 08:56 16,8 C 17,2 C 16,1 C 99 % 1017,4 hPa 0,0 l/m 0 min 0 min 121 W/m 3,2 km/h (1 Bft) 97,87 %
03.08.2019 08:58 16,8 C 17,8 C 16,1 C 99 % 1017,4 hPa 0,0 l/m 0 min 0 min 126 W/m 3,2 km/h (1 Bft) 97,87 %
03.08.2019 09:00 16,9 C 17,8 C 16,1 C 99 % 1017,4 hPa 0,0 l/m 0 min 0 min 132 W/m 3,2 km/h (1 Bft) 95,74 %
03.08.2019 09:02 16,9 C 17,8 C 16,7 C 99 % 1017,4 hPa 0,0 l/m 0 min 0 min 139 W/m 6,4 km/h (2 Bft) 97,83 %
03.08.2019 09:04 16,9 C 18,3 C 16,7 C 99 % 1017,4 hPa 0,0 l/m 0 min 0 min 147 W/m 6,4 km/h (2 Bft) 95,74 %
03.08.2019 09:06 16,9 C 18,3 C 16,7 C 99 % 1017,4 hPa 0,0 l/m 0 min 0 min 153 W/m 3,2 km/h (1 Bft) 97,87 %
03.08.2019 09:08 17,0 C 18,3 C 16,7 C 99 % 1017,4 hPa 0,0 l/m 0 min 0 min 151 W/m 0,0 km/h (0 Bft) 97,87 %
03.08.2019 09:10 17,0 C 18,3 C 16,7 C 99 % 1017,5 hPa 0,0 l/m 0 min 0 min 154 W/m 12,9 km/h (3 Bft) 95,74 %
03.08.2019 09:12 17,1 C 18,3 C 16,7 C 99 % 1017,5 hPa 0,0 l/m 0 min 0 min 166 W/m 3,2 km/h (1 Bft) 97,87 %
03.08.2019 09:14 17,1 C 18,9 C 17,2 C 99 % 1017,6 hPa 0,0 l/m 0 min 0 min 189 W/m 3,2 km/h (1 Bft) 97,83 %
03.08.2019 09:16 17,2 C 18,9 C 17,2 C 99 % 1017,5 hPa 0,0 l/m 0 min 0 min 177 W/m 3,2 km/h (1 Bft) 97,87 %
03.08.2019 09:18 17,2 C 19,4 C 17,2 C 99 % 1017,5 hPa 0,0 l/m 0 min 0 min 189 W/m 3,2 km/h (1 Bft) 97,87 %
03.08.2019 09:20 17,2 C 19,4 C 17,2 C 99 % 1017,5 hPa 0,0 l/m 0 min 0 min 187 W/m 3,2 km/h (1 Bft) 97,87 %
03.08.2019 09:22 17,3 C 19,4 C 17,2 C 99 % 1017,6 hPa 0,0 l/m 0 min 0 min 158 W/m 3,2 km/h (1 Bft) 97,87 %
03.08.2019 09:24 17,3 C 19,4 C 17,2 C 99 % 1017,5 hPa 0,0 l/m 0 min 0 min 135 W/m 3,2 km/h (1 Bft) 97,83 %
03.08.2019 09:26 17,3 C 19,4 C 17,2 C 99 % 1017,6 hPa 0,0 l/m 0 min 0 min 130 W/m 0,0 km/h (0 Bft) 97,87 %
03.08.2019 09:28 17,4 C 20,0 C 17,8 C 99 % 1017,6 hPa 0,0 l/m 0 min 0 min 177 W/m 6,4 km/h (2 Bft) 97,87 %
03.08.2019 09:30 17,4 C 21,1 C 20,0 C 99 % 1017,6 hPa 0,0 l/m 2 min 0 min 250 W/m 6,4 km/h (2 Bft) 97,87 %
03.08.2019 09:32 17,5 C 22,8 C 21,1 C 99 % 1017,6 hPa 0,0 l/m 2 min 0 min 466 W/m 3,2 km/h (1 Bft) 95,74 %
03.08.2019 09:34 17,6 C 22,2 C 21,1 C 99 % 1017,6 hPa 0,0 l/m 2 min 0 min 444 W/m 6,4 km/h (2 Bft) 93,62 %
03.08.2019 09:36 17,7 C 23,3 C 21,7 C 99 % 1017,6 hPa 0,0 l/m 2 min 0 min 455 W/m 6,4 km/h (2 Bft) 95,65 %
03.08.2019 09:38 17,8 C 23,9 C 23,3 C 99 % 1017,6 hPa 0,0 l/m 2 min 0 min 489 W/m 3,2 km/h (1 Bft) 95,74 %
03.08.2019 09:40 17,9 C 24,4 C 23,9 C 99 % 1017,6 hPa 0,0 l/m 2 min 0 min 503 W/m 3,2 km/h (1 Bft) 95,74 %
03.08.2019 09:42 18,0 C 25,0 C 25,0 C 99 % 1017,6 hPa 0,0 l/m 2 min 0 min 558 W/m 6,4 km/h (2 Bft) 93,62 %
03.08.2019 09:44 18,1 C 25,0 C 25,0 C 99 % 1017,6 hPa 0,0 l/m 2 min 0 min 574 W/m 9,7 km/h (2 Bft) 95,74 %
03.08.2019 09:46 18,3 C 26,1 C 25,6 C 99 % 1017,7 hPa 0,0 l/m 2 min 0 min 582 W/m 3,2 km/h (1 Bft) 95,74 %
03.08.2019 09:48 18,4 C 25,0 C 25,0 C 98 % 1017,7 hPa 0,0 l/m 2 min 0 min 477 W/m 9,7 km/h (2 Bft) 95,65 %
03.08.2019 09:50 18,5 C 23,9 C 23,3 C 98 % 1017,7 hPa 0,0 l/m 2 min 0 min 403 W/m 9,7 km/h (2 Bft) 95,74 %
03.08.2019 09:52 18,7 C 25,0 C 24,4 C 98 % 1017,7 hPa 0,0 l/m 2 min 0 min 370 W/m 3,2 km/h (1 Bft) 95,74 %
03.08.2019 09:54 18,8 C 25,0 C 25,0 C 98 % 1017,7 hPa 0,0 l/m 2 min 0 min 553 W/m 6,4 km/h (2 Bft) 93,62 %
03.08.2019 09:56 18,9 C 25,0 C 24,4 C 98 % 1017,7 hPa 0,0 l/m 2 min 0 min 543 W/m 6,4 km/h (2 Bft) 93,62 %
03.08.2019 09:58 18,9 C 25,0 C 25,6 C 98 % 1017,7 hPa 0,0 l/m 2 min 0 min 548 W/m 9,7 km/h (2 Bft) 97,87 %
03.08.2019 10:00 19,1 C 25,0 C 25,6 C 97 % 1017,8 hPa 0,0 l/m 2 min 0 min 593 W/m 6,4 km/h (2 Bft) 93,48 %
03.08.2019 10:02 19,2 C 25,6 C 26,1 C 96 % 1017,8 hPa 0,0 l/m 2 min 0 min 635 W/m 6,4 km/h (2 Bft) 95,74 %
03.08.2019 10:04 19,3 C 25,6 C 26,1 C 96 % 1017,8 hPa 0,0 l/m 2 min 0 min 673 W/m 9,7 km/h (2 Bft) 95,74 %
03.08.2019 10:06 19,5 C 26,1 C 26,7 C 95 % 1017,8 hPa 0,0 l/m 2 min 0 min 688 W/m 19,3 km/h (3 Bft) 97,87 %
03.08.2019 10:08 19,6 C 25,6 C 26,1 C 94 % 1017,8 hPa 0,0 l/m 2 min 0 min 603 W/m 12,9 km/h (3 Bft) 97,87 %
03.08.2019 10:10 19,7 C 25,6 C 26,1 C 93 % 1017,9 hPa 0,0 l/m 2 min 0 min 511 W/m 12,9 km/h (3 Bft) 97,87 %
03.08.2019 10:12 19,8 C 23,9 C 24,4 C 91 % 1017,9 hPa 0,0 l/m 2 min 0 min 435 W/m 6,4 km/h (2 Bft) 93,48 %
03.08.2019 10:14 19,9 C 22,8 C 22,2 C 90 % 1017,9 hPa 0,0 l/m 0 min 0 min 194 W/m 12,9 km/h (3 Bft) 97,87 %
03.08.2019 10:16 19,9 C 23,9 C 23,9 C 89 % 1017,9 hPa 0,0 l/m 0 min 0 min 162 W/m 9,7 km/h (2 Bft) 97,87 %
03.08.2019 10:18 19,9 C 25,0 C 25,0 C 88 % 1017,9 hPa 0,0 l/m 2 min 0 min 566 W/m 9,7 km/h (2 Bft) 95,74 %
03.08.2019 10:20 20,1 C 26,1 C 26,1 C 87 % 1017,9 hPa 0,0 l/m 2 min 0 min 672 W/m 6,4 km/h (2 Bft) 95,74 %
03.08.2019 10:22 20,2 C 27,2 C 27,2 C 87 % 1017,9 hPa 0,0 l/m 2 min 0 min 720 W/m 9,7 km/h (2 Bft) 97,87 %
03.08.2019 10:24 20,3 C 26,1 C 26,1 C 86 % 1017,8 hPa 0,0 l/m 2 min 0 min 724 W/m 12,9 km/h (3 Bft) 97,83 %
03.08.2019 10:26 20,5 C 26,7 C 27,2 C 86 % 1017,9 hPa 0,0 l/m 2 min 0 min 597 W/m 6,4 km/h (2 Bft) 97,87 %
03.08.2019 10:28 20,6 C 27,8 C 27,8 C 85 % 1017,9 hPa 0,0 l/m 2 min 0 min 620 W/m 12,9 km/h (3 Bft) 95,74 %
03.08.2019 10:30 20,8 C 26,1 C 26,1 C 86 % 1017,9 hPa 0,0 l/m 2 min 0 min 766 W/m 6,4 km/h (2 Bft) 95,74 %
03.08.2019 10:32 20,8 C 23,9 C 24,4 C 86 % 1018,0 hPa 0,0 l/m 2 min 0 min 446 W/m 9,7 km/h (2 Bft) 97,87 %
03.08.2019 10:34 20,9 C 23,3 C 23,9 C 85 % 1017,9 hPa 0,0 l/m 0 min 0 min 134 W/m 9,7 km/h (2 Bft) 97,87 %
03.08.2019 10:36 20,9 C 22,2 C 22,8 C 85 % 1018,0 hPa 0,0 l/m 0 min 0 min 121 W/m 9,7 km/h (2 Bft) 95,65 %
03.08.2019 10:38 20,8 C 21,1 C 21,1 C 84 % 1018,0 hPa 0,0 l/m 0 min 0 min 76 W/m 6,4 km/h (2 Bft) 98,00 %
03.08.2019 10:40 20,8 C 20,0 C 20,6 C 84 % 1018,0 hPa 0,0 l/m 0 min 0 min 71 W/m 9,7 km/h (2 Bft) 97,87 %
03.08.2019 10:42 20,7 C 19,4 C 19,4 C 83 % 1018,0 hPa 0,0 l/m 0 min 0 min 75 W/m 9,7 km/h (2 Bft) 97,87 %
03.08.2019 10:44 20,6 C 19,4 C 19,4 C 83 % 1018,0 hPa 0,0 l/m 0 min 0 min 91 W/m 6,4 km/h (2 Bft) 95,74 %
03.08.2019 10:46 20,5 C 22,2 C 22,2 C 83 % 1018,0 hPa 0,0 l/m 0 min 0 min 239 W/m 9,7 km/h (2 Bft) 97,83 %
03.08.2019 10:48 20,5 C 24,4 C 25,0 C 83 % 1018,0 hPa 0,0 l/m 2 min 0 min 720 W/m 12,9 km/h (3 Bft) 95,74 %
03.08.2019 10:50 20,5 C 26,1 C 26,1 C 83 % 1018,0 hPa 0,0 l/m 2 min 0 min 759 W/m 9,7 km/h (2 Bft) 97,87 %
03.08.2019 10:52 20,6 C 27,8 C 27,8 C 83 % 1018,0 hPa 0,0 l/m 2 min 0 min 798 W/m 12,9 km/h (3 Bft) 97,87 %
03.08.2019 10:54 20,7 C 27,8 C 27,8 C 83 % 1018,0 hPa 0,0 l/m 2 min 0 min 755 W/m 12,9 km/h (3 Bft) 97,87 %
03.08.2019 10:56 20,8 C 27,2 C 26,7 C 82 % 1018,0 hPa 0,0 l/m 2 min 0 min 744 W/m 6,4 km/h (2 Bft) 97,83 %
03.08.2019 10:58 21,0 C 28,3 C 28,3 C 82 % 1018,1 hPa 0,0 l/m 2 min 0 min 778 W/m 9,7 km/h (2 Bft) 97,87 %
03.08.2019 11:00 21,2 C 28,3 C 28,3 C 81 % 1018,2 hPa 0,0 l/m 2 min 0 min 874 W/m 16,1 km/h (3 Bft) 100,00 %
03.08.2019 11:02 21,3 C 27,2 C 27,2 C 80 % 1018,2 hPa 0,0 l/m 2 min 0 min 650 W/m 9,7 km/h (2 Bft) 95,74 %
03.08.2019 11:04 21,3 C 25,6 C 25,6 C 79 % 1018,2 hPa 0,0 l/m 2 min 0 min 417 W/m 6,4 km/h (2 Bft) 100,00 %
03.08.2019 11:06 21,4 C 27,2 C 26,7 C 79 % 1018,2 hPa 0,0 l/m 0 min 0 min 281 W/m 6,4 km/h (2 Bft) 95,74 %
03.08.2019 11:08 21,6 C 28,3 C 27,8 C 79 % 1018,2 hPa 0,0 l/m 2 min 0 min 565 W/m 6,4 km/h (2 Bft) 100,00 %
03.08.2019 11:10 21,6 C 28,3 C 27,8 C 77 % 1018,2 hPa 0,0 l/m 2 min 0 min 813 W/m 6,4 km/h (2 Bft) 100,00 %
03.08.2019 11:12 21,7 C 28,3 C 27,8 C 78 % 1018,1 hPa 0,0 l/m 2 min 0 min 748 W/m 6,4 km/h (2 Bft) 100,00 %
03.08.2019 11:14 21,8 C 28,9 C 28,3 C 78 % 1018,2 hPa 0,0 l/m 2 min 0 min 650 W/m 9,7 km/h (2 Bft) 100,00 %
03.08.2019 11:16 22,0 C 29,4 C 28,9 C 78 % 1018,1 hPa 0,0 l/m 2 min 0 min 835 W/m 6,4 km/h (2 Bft) 100,00 %
03.08.2019 11:18 22,1 C 27,8 C 26,7 C 78 % 1018,1 hPa 0,0 l/m 2 min 0 min 919 W/m 6,4 km/h (2 Bft) 100,00 %
03.08.2019 11:20 22,2 C 25,0 C 24,4 C 76 % 1018,0 hPa 0,0 l/m 0 min 0 min 173 W/m 9,7 km/h (2 Bft) 100,00 %
03.08.2019 11:22 22,2 C 23,9 C 22,8 C 76 % 1018,2 hPa 0,0 l/m 0 min 0 min 141 W/m 6,4 km/h (2 Bft) 100,00 %
03.08.2019 11:24 22,2 C 22,8 C 21,7 C 76 % 1018,1 hPa 0,0 l/m 0 min 0 min 134 W/m 12,9 km/h (3 Bft) 100,00 %
03.08.2019 11:26 22,1 C 22,2 C 21,1 C 76 % 1018,2 hPa 0,0 l/m 0 min 0 min 138 W/m 6,4 km/h (2 Bft) 100,00 %
03.08.2019 11:28 22,0 C 21,1 C 20,6 C 76 % 1018,3 hPa 0,0 l/m 0 min 0 min 152 W/m 12,9 km/h (3 Bft) 100,00 %
03.08.2019 11:30 21,9 C 21,1 C 20,6 C 76 % 1018,3 hPa 0,0 l/m 0 min 0 min 166 W/m 6,4 km/h (2 Bft) 97,87 %
03.08.2019 11:32 21,9 C 21,1 C 20,6 C 77 % 1018,3 hPa 0,0 l/m 0 min 0 min 176 W/m 6,4 km/h (2 Bft) 100,00 %
03.08.2019 11:34 21,8 C 21,1 C 20,6 C 77 % 1018,3 hPa 0,0 l/m 0 min 0 min 170 W/m 12,9 km/h (3 Bft) 100,00 %
03.08.2019 11:36 21,7 C 20,6 C 20,0 C 77 % 1018,3 hPa 0,0 l/m 0 min 0 min 154 W/m 12,9 km/h (3 Bft) 100,00 %
03.08.2019 11:38 21,6 C 20,6 C 20,0 C 77 % 1018,3 hPa 0,0 l/m 0 min 0 min 137 W/m 6,4 km/h (2 Bft) 100,00 %
03.08.2019 11:40 21,5 C 20,6 C 20,0 C 76 % 1018,3 hPa 0,0 l/m 0 min 0 min 122 W/m 9,7 km/h (2 Bft) 100,00 %
03.08.2019 11:42 21,4 C 20,0 C 19,4 C 77 % 1018,3 hPa 0,0 l/m 0 min 0 min 108 W/m 6,4 km/h (2 Bft) 100,00 %
03.08.2019 11:44 21,3 C 20,0 C 19,4 C 77 % 1018,3 hPa 0,0 l/m 0 min 0 min 92 W/m 6,4 km/h (2 Bft) 100,00 %
03.08.2019 11:46 21,2 C 20,0 C 19,4 C 76 % 1018,3 hPa 0,0 l/m 0 min 0 min 80 W/m 6,4 km/h (2 Bft) 100,00 %
03.08.2019 11:48 21,1 C 19,4 C 18,9 C 77 % 1018,3 hPa 0,0 l/m 0 min 0 min 74 W/m 6,4 km/h (2 Bft) 100,00 %
03.08.2019 11:50 21,0 C 19,4 C 18,9 C 77 % 1018,4 hPa 0,0 l/m 0 min 0 min 69 W/m 6,4 km/h (2 Bft) 100,00 %
03.08.2019 11:52 20,9 C 18,9 C 18,3 C 78 % 1018,4 hPa 0,0 l/m 0 min 2 min 67 W/m 6,4 km/h (2 Bft) 100,00 %
03.08.2019 11:54 20,8 C 18,9 C 18,3 C 78 % 1018,5 hPa 0,0 l/m 0 min 0 min 69 W/m 9,7 km/h (2 Bft) 100,00 %
03.08.2019 11:56 20,7 C 18,9 C 18,3 C 78 % 1018,4 hPa 0,0 l/m 0 min 0 min 74 W/m 6,4 km/h (2 Bft) 100,00 %
03.08.2019 11:58 20,6 C 18,9 C 18,3 C 79 % 1018,4 hPa 0,0 l/m 0 min 0 min 85 W/m 9,7 km/h (2 Bft) 100,00 %
03.08.2019 12:00 20,5 C 18,9 C 18,3 C 79 % 1018,4 hPa 0,0 l/m 0 min 0 min 100 W/m 6,4 km/h (2 Bft) 100,00 %
03.08.2019 12:02 20,4 C 19,4 C 18,3 C 79 % 1018,4 hPa 0,0 l/m 0 min 0 min 115 W/m 6,4 km/h (2 Bft) 97,87 %
03.08.2019 12:04 20,4 C 19,4 C 18,9 C 80 % 1018,4 hPa 0,0 l/m 0 min 0 min 131 W/m 3,2 km/h (1 Bft) 95,74 %
03.08.2019 12:08 20,3 C 20,0 C 18,9 C 81 % 1018,5 hPa 0,0 l/m 0 min 0 min 159 W/m 6,4 km/h (2 Bft) 100,00 %
03.08.2019 12:10 20,2 C 20,0 C 19,4 C 81 % 1018,5 hPa 0,0 l/m 0 min 0 min 191 W/m 9,7 km/h (2 Bft) 100,00 %
03.08.2019 12:12 20,2 C 20,6 C 19,4 C 81 % 1018,5 hPa 0,0 l/m 0 min 0 min 203 W/m 6,4 km/h (2 Bft) 97,87 %
03.08.2019 12:14 20,2 C 20,6 C 19,4 C 81 % 1018,5 hPa 0,0 l/m 0 min 0 min 206 W/m 9,7 km/h (2 Bft) 100,00 %
03.08.2019 12:16 20,2 C 20,6 C 20,0 C 82 % 1018,4 hPa 0,0 l/m 0 min 0 min 196 W/m 9,7 km/h (2 Bft) 97,87 %
03.08.2019 12:18 20,2 C 21,1 C 20,0 C 82 % 1018,5 hPa 0,0 l/m 0 min 0 min 185 W/m 6,4 km/h (2 Bft) 100,00 %
03.08.2019 12:20 20,2 C 21,1 C 20,0 C 83 % 1018,5 hPa 0,0 l/m 0 min 0 min 181 W/m 6,4 km/h (2 Bft) 100,00 %
03.08.2019 12:22 20,2 C 20,6 C 19,4 C 83 % 1018,5 hPa 0,0 l/m 0 min 0 min 180 W/m 6,4 km/h (2 Bft) 100,00 %
03.08.2019 12:24 20,2 C 20,6 C 19,4 C 83 % 1018,4 hPa 0,0 l/m 0 min 0 min 195 W/m 9,7 km/h (2 Bft) 100,00 %
03.08.2019 12:26 20,1 C 20,6 C 20,0 C 83 % 1018,4 hPa 0,0 l/m 0 min 0 min 207 W/m 9,7 km/h (2 Bft) 100,00 %
03.08.2019 12:28 20,1 C 21,1 C 20,0 C 82 % 1018,5 hPa 0,0 l/m 0 min 0 min 220 W/m 9,7 km/h (2 Bft) 100,00 %
03.08.2019 12:30 20,1 C 21,1 C 20,0 C 82 % 1018,5 hPa 0,0 l/m 0 min 0 min 235 W/m 9,7 km/h (2 Bft) 97,83 %
03.08.2019 12:32 20,1 C 21,1 C 20,0 C 83 % 1018,6 hPa 0,0 l/m 0 min 0 min 250 W/m 12,9 km/h (3 Bft) 100,00 %
03.08.2019 12:34 20,1 C 21,1 C 20,6 C 83 % 1018,6 hPa 0,2 l/m 0 min 0 min 266 W/m 16,1 km/h (3 Bft) 97,87 %
03.08.2019 12:36 20,2 C 21,7 C 20,6 C 83 % 1018,6 hPa 0,0 l/m 0 min 0 min 279 W/m 9,7 km/h (2 Bft) 97,87 %
03.08.2019 12:38 20,2 C 21,7 C 20,6 C 83 % 1018,7 hPa 0,0 l/m 0 min 0 min 279 W/m 16,1 km/h (3 Bft) 95,74 %
03.08.2019 12:40 20,2 C 22,2 C 20,6 C 83 % 1018,6 hPa 0,0 l/m 0 min 0 min 283 W/m 9,7 km/h (2 Bft) 95,74 %
03.08.2019 12:42 20,2 C 22,2 C 20,6 C 83 % 1018,6 hPa 0,0 l/m 0 min 0 min 287 W/m 19,3 km/h (3 Bft) 95,65 %
03.08.2019 12:44 20,3 C 22,2 C 21,1 C 83 % 1018,5 hPa 0,0 l/m 0 min 0 min 286 W/m 9,7 km/h (2 Bft) 97,87 %
03.08.2019 12:46 20,3 C 22,2 C 21,1 C 83 % 1018,6 hPa 0,0 l/m 0 min 0 min 291 W/m 9,7 km/h (2 Bft) 95,74 %
03.08.2019 12:48 20,3 C 22,8 C 21,1 C 83 % 1018,6 hPa 0,0 l/m 0 min 0 min 301 W/m 6,4 km/h (2 Bft) 87,23 %
03.08.2019 12:50 20,4 C 22,8 C 21,1 C 83 % 1018,6 hPa 0,0 l/m 0 min 0 min 318 W/m 6,4 km/h (2 Bft) 95,74 %
03.08.2019 12:52 20,4 C 22,8 C 21,1 C 83 % 1018,7 hPa 0,0 l/m 0 min 0 min 341 W/m 6,4 km/h (2 Bft) 93,62 %
03.08.2019 12:54 20,5 C 22,8 C 21,1 C 83 % 1018,7 hPa 0,0 l/m 0 min 0 min 345 W/m 12,9 km/h (3 Bft) 95,65 %
03.08.2019 12:56 20,5 C 22,8 C 21,7 C 82 % 1018,7 hPa 0,0 l/m 0 min 0 min 356 W/m 12,9 km/h (3 Bft) 91,49 %
03.08.2019 12:58 20,6 C 22,8 C 21,1 C 82 % 1018,6 hPa 0,0 l/m 0 min 0 min 340 W/m 9,7 km/h (2 Bft) 93,62 %
03.08.2019 13:00 20,6 C 22,8 C 21,1 C 81 % 1018,6 hPa 0,0 l/m 0 min 0 min 343 W/m 6,4 km/h (2 Bft) 95,74 %
03.08.2019 13:02 20,6 C 22,8 C 21,1 C 81 % 1018,5 hPa 0,0 l/m 0 min 0 min 353 W/m 12,9 km/h (3 Bft) 91,89 %
03.08.2019 13:04 20,6 C 22,8 C 21,1 C 81 % 1018,5 hPa 0,0 l/m 0 min 0 min 345 W/m 9,7 km/h (2 Bft) 93,62 %
03.08.2019 13:06 20,7 C 23,3 C 21,1 C 81 % 1018,6 hPa 0,0 l/m 0 min 0 min 346 W/m 9,7 km/h (2 Bft) 91,30 %
03.08.2019 13:08 20,7 C 23,3 C 21,7 C 81 % 1018,6 hPa 0,0 l/m 0 min 0 min 346 W/m 12,9 km/h (3 Bft) 93,62 %
03.08.2019 13:10 20,7 C 23,3 C 21,7 C 81 % 1018,6 hPa 0,0 l/m 0 min 0 min 356 W/m 12,9 km/h (3 Bft) 93,62 %
03.08.2019 13:12 20,8 C 23,3 C 21,7 C 80 % 1018,5 hPa 0,0 l/m 0 min 0 min 370 W/m 6,4 km/h (2 Bft) 91,49 %
03.08.2019 13:14 20,8 C 23,3 C 21,7 C 80 % 1018,6 hPa 0,0 l/m 0 min 0 min 377 W/m 9,7 km/h (2 Bft) 91,49 %
03.08.2019 13:16 20,9 C 23,3 C 21,7 C 80 % 1018,6 hPa 0,0 l/m 0 min 0 min 373 W/m 12,9 km/h (3 Bft) 93,62 %
03.08.2019 13:18 21,0 C 23,9 C 21,7 C 80 % 1018,6 hPa 0,0 l/m 0 min 0 min 358 W/m 6,4 km/h (2 Bft) 93,48 %
03.08.2019 13:20 21,0 C 23,9 C 21,7 C 80 % 1018,6 hPa 0,0 l/m 0 min 0 min 356 W/m 6,4 km/h (2 Bft) 91,49 %
03.08.2019 13:22 21,1 C 23,3 C 21,7 C 80 % 1018,6 hPa 0,0 l/m 0 min 0 min 357 W/m 12,9 km/h (3 Bft) 95,65 %
03.08.2019 13:24 21,1 C 23,3 C 21,7 C 79 % 1018,7 hPa 0,0 l/m 0 min 0 min 353 W/m 6,4 km/h (2 Bft) 93,62 %
03.08.2019 13:26 21,1 C 23,3 C 21,7 C 79 % 1018,7 hPa 0,0 l/m 0 min 0 min 342 W/m 9,7 km/h (2 Bft) 93,62 %
03.08.2019 13:28 21,1 C 23,3 C 21,7 C 78 % 1018,8 hPa 0,0 l/m 0 min 0 min 324 W/m 12,9 km/h (3 Bft) 97,87 %
03.08.2019 13:30 21,1 C 22,8 C 21,1 C 78 % 1018,8 hPa 0,0 l/m 0 min 0 min 310 W/m 12,9 km/h (3 Bft) 97,83 %
03.08.2019 13:32 21,2 C 22,8 C 21,1 C 78 % 1018,8 hPa 0,0 l/m 0 min 0 min 299 W/m 9,7 km/h (2 Bft) 97,87 %
03.08.2019 13:34 21,2 C 22,8 C 21,1 C 78 % 1018,8 hPa 0,0 l/m 0 min 0 min 292 W/m 6,4 km/h (2 Bft) 97,87 %
03.08.2019 13:36 21,2 C 22,8 C 21,1 C 78 % 1018,7 hPa 0,0 l/m 0 min 0 min 292 W/m 9,7 km/h (2 Bft) 97,87 %
03.08.2019 13:38 21,2 C 22,2 C 21,1 C 77 % 1018,7 hPa 0,0 l/m 0 min 0 min 302 W/m 12,9 km/h (3 Bft) 95,74 %
03.08.2019 13:40 21,1 C 22,8 C 21,1 C 78 % 1018,7 hPa 0,0 l/m 0 min 0 min 314 W/m 9,7 km/h (2 Bft) 95,65 %
03.08.2019 13:42 21,1 C 22,8 C 21,1 C 78 % 1018,8 hPa 0,0 l/m 0 min 0 min 311 W/m 9,7 km/h (2 Bft) 95,74 %
03.08.2019 13:44 21,2 C 22,8 C 21,1 C 78 % 1018,7 hPa 0,0 l/m 0 min 0 min 306 W/m 6,4 km/h (2 Bft) 97,87 %
03.08.2019 13:46 21,2 C 22,8 C 21,1 C 79 % 1018,8 hPa 0,0 l/m 0 min 0 min 301 W/m 6,4 km/h (2 Bft) 97,87 %
03.08.2019 13:48 21,2 C 22,8 C 21,1 C 79 % 1018,8 hPa 0,0 l/m 0 min 0 min 300 W/m 6,4 km/h (2 Bft) 97,87 %
03.08.2019 13:50 21,2 C 22,8 C 21,1 C 79 % 1018,8 hPa 0,0 l/m 0 min 0 min 300 W/m 6,4 km/h (2 Bft) 97,87 %
03.08.2019 13:52 21,2 C 22,8 C 21,1 C 78 % 1018,9 hPa 0,0 l/m 0 min 0 min 304 W/m 9,7 km/h (2 Bft) 97,83 %
03.08.2019 13:54 21,2 C 22,8 C 21,1 C 77 % 1018,9 hPa 0,0 l/m 0 min 0 min 312 W/m 9,7 km/h (2 Bft) 95,74 %
03.08.2019 13:56 21,2 C 23,3 C 21,1 C 77 % 1018,9 hPa 0,0 l/m 0 min 0 min 324 W/m 9,7 km/h (2 Bft) 95,74 %
03.08.2019 13:58 21,2 C 23,3 C 21,7 C 78 % 1018,9 hPa 0,0 l/m 0 min 0 min 341 W/m 6,4 km/h (2 Bft) 97,87 %
03.08.2019 14:00 21,3 C 23,3 C 21,7 C 78 % 1018,8 hPa 0,0 l/m 0 min 0 min 344 W/m 9,7 km/h (2 Bft) 97,87 %
03.08.2019 14:02 21,3 C 23,3 C 21,7 C 78 % 1018,9 hPa 0,0 l/m 0 min 0 min 346 W/m 19,3 km/h (3 Bft) 96,00 %
03.08.2019 14:04 21,4 C 23,3 C 21,7 C 78 % 1018,9 hPa 0,0 l/m 0 min 0 min 356 W/m 6,4 km/h (2 Bft) 100,00 %
03.08.2019 14:06 21,4 C 23,9 C 21,7 C 77 % 1018,8 hPa 0,0 l/m 0 min 0 min 370 W/m 9,7 km/h (2 Bft) 97,87 %
03.08.2019 14:08 21,4 C 24,4 C 22,2 C 78 % 1018,8 hPa 0,0 l/m 0 min 0 min 395 W/m 6,4 km/h (2 Bft) 100,00 %
03.08.2019 14:10 21,5 C 24,4 C 22,2 C 77 % 1018,7 hPa 0,0 l/m 2 min 0 min 436 W/m 9,7 km/h (2 Bft) 100,00 %
03.08.2019 14:12 21,6 C 25,0 C 22,8 C 78 % 1018,8 hPa 0,0 l/m 2 min 0 min 474 W/m 9,7 km/h (2 Bft) 97,87 %
03.08.2019 14:14 21,6 C 25,6 C 23,3 C 78 % 1018,8 hPa 0,0 l/m 2 min 0 min 450 W/m 16,1 km/h (3 Bft) 100,00 %
03.08.2019 14:16 21,7 C 25,0 C 23,3 C 76 % 1018,8 hPa 0,0 l/m 2 min 0 min 471 W/m 12,9 km/h (3 Bft) 100,00 %
03.08.2019 14:18 21,7 C 24,4 C 22,8 C 75 % 1018,8 hPa 0,0 l/m 2 min 0 min 445 W/m 19,3 km/h (3 Bft) 100,00 %
03.08.2019 14:20 21,7 C 25,0 C 23,3 C 76 % 1018,8 hPa 0,0 l/m 2 min 0 min 415 W/m 6,4 km/h (2 Bft) 100,00 %
03.08.2019 14:22 21,8 C 25,0 C 23,3 C 77 % 1018,8 hPa 0,0 l/m 0 min 0 min 384 W/m 6,4 km/h (2 Bft) 95,74 %
03.08.2019 14:24 21,9 C 25,0 C 22,8 C 76 % 1018,8 hPa 0,0 l/m 0 min 0 min 368 W/m 12,9 km/h (3 Bft) 97,87 %
03.08.2019 14:26 21,9 C 24,4 C 22,8 C 75 % 1018,8 hPa 0,0 l/m 0 min 0 min 374 W/m 9,7 km/h (2 Bft) 100,00 %
03.08.2019 14:28 21,9 C 24,4 C 22,8 C 74 % 1018,8 hPa 0,0 l/m 0 min 0 min 395 W/m 16,1 km/h (3 Bft) 100,00 %
03.08.2019 14:30 21,9 C 25,0 C 22,8 C 74 % 1018,8 hPa 0,0 l/m 2 min 0 min 417 W/m 9,7 km/h (2 Bft) 100,00 %
03.08.2019 14:32 21,9 C 24,4 C 22,8 C 73 % 1018,8 hPa 0,0 l/m 0 min 0 min 391 W/m 19,3 km/h (3 Bft) 100,00 %
03.08.2019 14:34 21,9 C 23,9 C 22,8 C 74 % 1018,8 hPa 0,0 l/m 2 min 0 min 403 W/m 12,9 km/h (3 Bft) 100,00 %
03.08.2019 14:36 22,0 C 23,9 C 22,8 C 74 % 1018,8 hPa 0,0 l/m 0 min 0 min 382 W/m 6,4 km/h (2 Bft) 97,87 %
03.08.2019 14:38 21,9 C 23,9 C 22,2 C 73 % 1018,7 hPa 0,0 l/m 0 min 0 min 348 W/m 12,9 km/h (3 Bft) 100,00 %
03.08.2019 14:40 21,9 C 23,9 C 22,2 C 74 % 1018,8 hPa 0,0 l/m 0 min 0 min 336 W/m 9,7 km/h (2 Bft) 100,00 %
03.08.2019 14:42 21,9 C 23,9 C 21,7 C 73 % 1018,8 hPa 0,0 l/m 0 min 0 min 339 W/m 12,9 km/h (3 Bft) 100,00 %
03.08.2019 14:44 21,9 C 23,9 C 22,2 C 74 % 1018,7 hPa 0,0 l/m 0 min 0 min 352 W/m 6,4 km/h (2 Bft) 100,00 %
03.08.2019 14:46 21,9 C 23,9 C 22,2 C 74 % 1018,8 hPa 0,0 l/m 0 min 0 min 354 W/m 12,9 km/h (3 Bft) 100,00 %
03.08.2019 14:48 21,9 C 23,9 C 22,2 C 74 % 1018,7 hPa 0,0 l/m 0 min 0 min 350 W/m 6,4 km/h (2 Bft) 100,00 %
03.08.2019 14:50 22,0 C 23,9 C 22,2 C 75 % 1018,7 hPa 0,0 l/m 0 min 0 min 337 W/m 12,9 km/h (3 Bft) 100,00 %
03.08.2019 14:52 21,9 C 23,3 C 22,2 C 74 % 1018,7 hPa 0,0 l/m 0 min 0 min 320 W/m 6,4 km/h (2 Bft) 97,87 %
03.08.2019 14:54 21,9 C 23,9 C 22,2 C 75 % 1018,7 hPa 0,0 l/m 0 min 0 min 309 W/m 3,2 km/h (1 Bft) 100,00 %
03.08.2019 14:56 22,0 C 23,3 C 22,2 C 75 % 1018,7 hPa 0,0 l/m 0 min 0 min 305 W/m 6,4 km/h (2 Bft) 100,00 %
03.08.2019 14:58 22,0 C 23,3 C 21,7 C 74 % 1018,7 hPa 0,0 l/m 0 min 0 min 302 W/m 12,9 km/h (3 Bft) 100,00 %
03.08.2019 15:00 22,0 C 23,3 C 22,2 C 74 % 1018,7 hPa 0,0 l/m 0 min 0 min 299 W/m 16,1 km/h (3 Bft) 100,00 %
03.08.2019 15:02 21,9 C 23,3 C 21,7 C 73 % 1018,7 hPa 0,0 l/m 0 min 0 min 295 W/m 9,7 km/h (2 Bft) 97,83 %
03.08.2019 15:04 21,9 C 23,3 C 21,7 C 73 % 1018,7 hPa 0,0 l/m 0 min 0 min 292 W/m 6,4 km/h (2 Bft) 100,00 %
03.08.2019 15:06 21,9 C 23,3 C 21,7 C 75 % 1018,7 hPa 0,0 l/m 0 min 0 min 293 W/m 6,4 km/h (2 Bft) 97,87 %
03.08.2019 15:08 21,9 C 23,9 C 21,7 C 75 % 1018,7 hPa 0,0 l/m 0 min 0 min 307 W/m 3,2 km/h (1 Bft) 100,00 %
03.08.2019 15:10 21,9 C 23,9 C 21,7 C 75 % 1018,7 hPa 0,0 l/m 0 min 0 min 330 W/m 9,7 km/h (2 Bft) 100,00 %
03.08.2019 15:12 22,0 C 23,9 C 21,7 C 75 % 1018,7 hPa 0,0 l/m 0 min 0 min 326 W/m 6,4 km/h (2 Bft) 97,87 %
03.08.2019 15:14 22,0 C 23,9 C 21,7 C 75 % 1018,7 hPa 0,0 l/m 0 min 0 min 313 W/m 6,4 km/h (2 Bft) 97,83 %
03.08.2019 15:16 22,0 C 23,9 C 21,7 C 75 % 1018,7 hPa 0,0 l/m 0 min 0 min 296 W/m 3,2 km/h (1 Bft) 97,87 %
03.08.2019 15:18 22,0 C 23,9 C 21,7 C 74 % 1018,7 hPa 0,0 l/m 0 min 0 min 275 W/m 9,7 km/h (2 Bft) 97,87 %
03.08.2019 15:20 22,0 C 23,3 C 21,7 C 73 % 1018,7 hPa 0,0 l/m 0 min 0 min 270 W/m 12,9 km/h (3 Bft) 97,87 %
03.08.2019 15:22 21,9 C 22,8 C 21,7 C 71 % 1018,8 hPa 0,0 l/m 0 min 0 min 266 W/m 16,1 km/h (3 Bft) 97,87 %
03.08.2019 15:24 21,9 C 22,8 C 21,7 C 72 % 1018,8 hPa 0,0 l/m 0 min 0 min 272 W/m 12,9 km/h (3 Bft) 95,74 %
03.08.2019 15:26 21,9 C 22,8 C 21,7 C 72 % 1018,7 hPa 0,0 l/m 0 min 0 min 286 W/m 12,9 km/h (3 Bft) 97,83 %
03.08.2019 15:28 21,9 C 23,3 C 21,7 C 73 % 1018,7 hPa 0,0 l/m 0 min 0 min 302 W/m 9,7 km/h (2 Bft) 97,87 %
03.08.2019 15:30 21,9 C 23,3 C 21,7 C 73 % 1018,7 hPa 0,0 l/m 0 min 0 min 325 W/m 9,7 km/h (2 Bft) 97,87 %
03.08.2019 15:32 21,9 C 23,3 C 21,7 C 73 % 1018,7 hPa 0,0 l/m 0 min 0 min 361 W/m 16,1 km/h (3 Bft) 95,74 %
03.08.2019 15:34 21,9 C 23,9 C 21,7 C 72 % 1018,7 hPa 0,0 l/m 2 min 0 min 420 W/m 16,1 km/h (3 Bft) 97,87 %
03.08.2019 15:36 21,9 C 24,4 C 22,2 C 73 % 1018,6 hPa 0,0 l/m 2 min 0 min 425 W/m 16,1 km/h (3 Bft) 95,65 %
03.08.2019 15:38 21,9 C 25,0 C 22,2 C 74 % 1018,7 hPa 0,0 l/m 2 min 0 min 420 W/m 6,4 km/h (2 Bft) 95,74 %
03.08.2019 15:40 22,0 C 25,6 C 22,2 C 74 % 1018,7 hPa 0,0 l/m 2 min 0 min 453 W/m 6,4 km/h (2 Bft) 95,74 %
03.08.2019 15:42 22,1 C 26,1 C 22,8 C 75 % 1018,6 hPa 0,0 l/m 2 min 0 min 477 W/m 9,7 km/h (2 Bft) 91,49 %
03.08.2019 15:44 22,1 C 26,1 C 22,8 C 75 % 1018,7 hPa 0,0 l/m 2 min 0 min 454 W/m 9,7 km/h (2 Bft) 95,74 %
03.08.2019 15:46 22,2 C 25,6 C 22,8 C 73 % 1018,7 hPa 0,0 l/m 2 min 0 min 402 W/m 9,7 km/h (2 Bft) 95,74 %
03.08.2019 15:48 22,2 C 25,0 C 22,8 C 73 % 1018,7 hPa 0,0 l/m 2 min 0 min 370 W/m 9,7 km/h (2 Bft) 93,48 %
03.08.2019 15:50 22,2 C 25,0 C 22,8 C 73 % 1018,6 hPa 0,0 l/m 2 min 0 min 375 W/m 9,7 km/h (2 Bft) 95,74 %
03.08.2019 15:52 22,3 C 25,0 C 22,2 C 72 % 1018,6 hPa 0,0 l/m 2 min 0 min 384 W/m 9,7 km/h (2 Bft) 95,74 %
03.08.2019 15:54 22,3 C 25,0 C 22,2 C 72 % 1018,7 hPa 0,0 l/m 2 min 0 min 367 W/m 12,9 km/h (3 Bft) 95,74 %
03.08.2019 15:56 22,3 C 24,4 C 22,2 C 70 % 1018,7 hPa 0,0 l/m 2 min 0 min 380 W/m 16,1 km/h (3 Bft) 93,62 %
03.08.2019 15:58 22,3 C 24,4 C 22,2 C 72 % 1018,7 hPa 0,0 l/m 2 min 0 min 384 W/m 16,1 km/h (3 Bft) 95,74 %
03.08.2019 16:00 22,3 C 24,4 C 22,2 C 72 % 1018,7 hPa 0,0 l/m 2 min 0 min 424 W/m 16,1 km/h (3 Bft) 97,83 %
03.08.2019 16:02 22,3 C 24,4 C 22,2 C 72 % 1018,7 hPa 0,0 l/m 2 min 0 min 400 W/m 12,9 km/h (3 Bft) 95,74 %
03.08.2019 16:04 22,3 C 25,0 C 22,8 C 72 % 1018,7 hPa 0,0 l/m 2 min 0 min 389 W/m 9,7 km/h (2 Bft) 97,87 %
03.08.2019 16:06 22,4 C 25,0 C 22,8 C 73 % 1018,7 hPa 0,0 l/m 2 min 0 min 374 W/m 9,7 km/h (2 Bft) 97,87 %
03.08.2019 16:08 22,4 C 24,4 C 22,8 C 73 % 1018,7 hPa 0,0 l/m 2 min 0 min 359 W/m 9,7 km/h (2 Bft) 97,87 %
03.08.2019 16:10 22,4 C 24,4 C 22,2 C 72 % 1018,7 hPa 0,0 l/m 2 min 0 min 350 W/m 9,7 km/h (2 Bft) 97,87 %
03.08.2019 16:12 22,4 C 24,4 C 22,8 C 72 % 1018,7 hPa 0,0 l/m 2 min 0 min 348 W/m 9,7 km/h (2 Bft) 97,83 %
03.08.2019 16:14 22,3 C 23,9 C 22,2 C 71 % 1018,7 hPa 0,0 l/m 2 min 0 min 357 W/m 19,3 km/h (3 Bft) 95,74 %
03.08.2019 16:16 22,3 C 23,9 C 22,2 C 72 % 1018,7 hPa 0,0 l/m 2 min 0 min 350 W/m 12,9 km/h (3 Bft) 97,87 %
03.08.2019 16:18 22,3 C 24,4 C 22,2 C 72 % 1018,7 hPa 0,0 l/m 2 min 0 min 400 W/m 12,9 km/h (3 Bft) 97,87 %
03.08.2019 16:20 22,3 C 24,4 C 22,2 C 74 % 1018,7 hPa 0,0 l/m 2 min 0 min 409 W/m 16,1 km/h (3 Bft) 95,74 %
03.08.2019 16:22 22,3 C 24,4 C 22,2 C 73 % 1018,7 hPa 0,0 l/m 2 min 0 min 385 W/m 6,4 km/h (2 Bft) 100,00 %
03.08.2019 16:24 22,3 C 25,0 C 22,2 C 73 % 1018,7 hPa 0,0 l/m 2 min 0 min 393 W/m 6,4 km/h (2 Bft) 97,83 %
03.08.2019 16:26 22,3 C 25,0 C 22,2 C 72 % 1018,7 hPa 0,0 l/m 2 min 0 min 379 W/m 12,9 km/h (3 Bft) 100,00 %
03.08.2019 16:28 22,4 C 24,4 C 22,2 C 73 % 1018,7 hPa 0,0 l/m 2 min 0 min 370 W/m 6,4 km/h (2 Bft) 100,00 %
03.08.2019 16:30 22,4 C 24,4 C 22,2 C 73 % 1018,7 hPa 0,0 l/m 2 min 0 min 358 W/m 9,7 km/h (2 Bft) 97,87 %
03.08.2019 16:32 22,4 C 24,4 C 21,7 C 74 % 1018,7 hPa 0,0 l/m 2 min 0 min 348 W/m 9,7 km/h (2 Bft) 100,00 %
03.08.2019 16:34 22,4 C 24,4 C 21,7 C 75 % 1018,7 hPa 0,0 l/m 2 min 0 min 339 W/m 12,9 km/h (3 Bft) 100,00 %
03.08.2019 16:36 22,4 C 23,9 C 21,7 C 74 % 1018,6 hPa 0,0 l/m 2 min 0 min 334 W/m 22,5 km/h (4 Bft) 100,00 %
03.08.2019 16:38 22,4 C 23,9 C 21,7 C 75 % 1018,6 hPa 0,0 l/m 2 min 0 min 348 W/m 6,4 km/h (2 Bft) 98,18 %
03.08.2019 16:40 22,4 C 23,9 C 21,7 C 75 % 1018,7 hPa 0,0 l/m 2 min 0 min 366 W/m 16,1 km/h (3 Bft) 97,87 %
03.08.2019 16:42 22,4 C 23,9 C 21,7 C 75 % 1018,7 hPa 0,0 l/m 2 min 0 min 378 W/m 9,7 km/h (2 Bft) 97,87 %
03.08.2019 16:44 22,4 C 23,9 C 21,7 C 75 % 1018,7 hPa 0,0 l/m 2 min 0 min 400 W/m 9,7 km/h (2 Bft) 97,87 %
03.08.2019 16:46 22,3 C 24,4 C 21,7 C 75 % 1018,7 hPa 0,0 l/m 2 min 0 min 417 W/m 6,4 km/h (2 Bft) 97,83 %
03.08.2019 16:48 22,3 C 24,4 C 21,7 C 75 % 1018,7 hPa 0,0 l/m 2 min 0 min 374 W/m 19,3 km/h (3 Bft) 97,87 %
03.08.2019 16:50 22,3 C 24,4 C 21,7 C 75 % 1018,7 hPa 0,0 l/m 2 min 0 min 383 W/m 6,4 km/h (2 Bft) 97,87 %
03.08.2019 16:52 22,3 C 24,4 C 21,7 C 75 % 1018,6 hPa 0,0 l/m 2 min 0 min 390 W/m 9,7 km/h (2 Bft) 97,87 %
03.08.2019 16:54 22,3 C 23,9 C 21,7 C 75 % 1018,7 hPa 0,0 l/m 2 min 0 min 377 W/m 9,7 km/h (2 Bft) 97,87 %
03.08.2019 16:56 22,3 C 23,9 C 21,7 C 75 % 1018,7 hPa 0,0 l/m 2 min 0 min 327 W/m 6,4 km/h (2 Bft) 97,87 %
03.08.2019 16:58 22,3 C 23,3 C 21,7 C 74 % 1018,7 hPa 0,0 l/m 2 min 0 min 305 W/m 16,1 km/h (3 Bft) 97,83 %
03.08.2019 17:00 22,2 C 23,3 C 21,7 C 74 % 1018,7 hPa 0,0 l/m 0 min 0 min 298 W/m 6,4 km/h (2 Bft) 97,87 %
03.08.2019 17:02 22,2 C 23,3 C 21,7 C 75 % 1018,7 hPa 0,0 l/m 0 min 0 min 287 W/m 12,9 km/h (3 Bft) 95,74 %
03.08.2019 17:04 22,2 C 23,3 C 21,7 C 74 % 1018,7 hPa 0,0 l/m 0 min 0 min 283 W/m 6,4 km/h (2 Bft) 97,87 %
03.08.2019 17:06 22,2 C 23,3 C 21,1 C 74 % 1018,6 hPa 0,0 l/m 0 min 0 min 288 W/m 9,7 km/h (2 Bft) 95,74 %
03.08.2019 17:08 22,1 C 23,3 C 21,1 C 74 % 1018,6 hPa 0,0 l/m 2 min 0 min 311 W/m 6,4 km/h (2 Bft) 97,87 %
03.08.2019 17:10 22,1 C 23,9 C 21,7 C 75 % 1018,6 hPa 0,0 l/m 2 min 0 min 354 W/m 9,7 km/h (2 Bft) 97,83 %
03.08.2019 17:12 22,1 C 23,9 C 21,7 C 75 % 1018,6 hPa 0,0 l/m 2 min 0 min 369 W/m 6,4 km/h (2 Bft) 97,87 %
03.08.2019 17:14 22,1 C 24,4 C 21,7 C 75 % 1018,4 hPa 0,0 l/m 2 min 0 min 392 W/m 6,4 km/h (2 Bft) 97,87 %
03.08.2019 17:16 22,2 C 25,6 C 22,2 C 75 % 1018,5 hPa 0,0 l/m 2 min 0 min 417 W/m 9,7 km/h (2 Bft) 97,87 %
03.08.2019 17:18 22,2 C 25,0 C 22,2 C 74 % 1018,5 hPa 0,0 l/m 2 min 0 min 405 W/m 6,4 km/h (2 Bft) 97,87 %
03.08.2019 17:20 22,2 C 25,0 C 21,7 C 74 % 1018,5 hPa 0,0 l/m 2 min 0 min 378 W/m 9,7 km/h (2 Bft) 97,87 %
03.08.2019 17:22 22,3 C 25,0 C 22,2 C 74 % 1018,5 hPa 0,0 l/m 2 min 0 min 368 W/m 6,4 km/h (2 Bft) 97,83 %
03.08.2019 17:24 22,3 C 25,0 C 22,2 C 75 % 1018,4 hPa 0,0 l/m 2 min 0 min 360 W/m 12,9 km/h (3 Bft) 97,87 %
03.08.2019 17:26 22,3 C 25,0 C 22,2 C 73 % 1018,4 hPa 0,0 l/m 2 min 0 min 354 W/m 6,4 km/h (2 Bft) 97,87 %
03.08.2019 17:28 22,4 C 25,0 C 21,7 C 73 % 1018,4 hPa 0,0 l/m 2 min 0 min 326 W/m 6,4 km/h (2 Bft) 97,87 %
03.08.2019 17:30 22,4 C 24,4 C 21,7 C 72 % 1018,4 hPa 0,0 l/m 2 min 0 min 325 W/m 9,7 km/h (2 Bft) 97,87 %
03.08.2019 17:32 22,4 C 24,4 C 21,7 C 71 % 1018,4 hPa 0,0 l/m 2 min 0 min 344 W/m 6,4 km/h (2 Bft) 97,83 %
03.08.2019 17:34 22,4 C 24,4 C 21,7 C 72 % 1018,3 hPa 0,0 l/m 2 min 0 min 335 W/m 6,4 km/h (2 Bft) 97,87 %
03.08.2019 17:36 22,4 C 24,4 C 21,7 C 72 % 1018,2 hPa 0,0 l/m 2 min 0 min 333 W/m 9,7 km/h (2 Bft) 97,87 %
03.08.2019 17:38 22,4 C 25,0 C 21,7 C 72 % 1018,2 hPa 0,0 l/m 2 min 0 min 348 W/m 9,7 km/h (2 Bft) 95,74 %
03.08.2019 17:40 22,4 C 24,4 C 21,7 C 70 % 1018,2 hPa 0,0 l/m 2 min 0 min 348 W/m 9,7 km/h (2 Bft) 100,00 %
03.08.2019 17:42 22,5 C 25,0 C 22,2 C 71 % 1018,3 hPa 0,0 l/m 2 min 0 min 388 W/m 12,9 km/h (3 Bft) 97,87 %
03.08.2019 17:44 22,5 C 24,4 C 22,2 C 71 % 1018,2 hPa 0,0 l/m 2 min 0 min 405 W/m 9,7 km/h (2 Bft) 97,83 %
03.08.2019 17:46 22,5 C 23,9 C 21,7 C 70 % 1018,2 hPa 0,0 l/m 2 min 0 min 343 W/m 9,7 km/h (2 Bft) 97,87 %
03.08.2019 17:48 22,5 C 23,9 C 21,7 C 70 % 1018,2 hPa 0,0 l/m 0 min 0 min 248 W/m 16,1 km/h (3 Bft) 97,87 %
03.08.2019 17:50 22,4 C 23,3 C 21,1 C 71 % 1018,2 hPa 0,0 l/m 0 min 0 min 237 W/m 12,9 km/h (3 Bft) 97,87 %
03.08.2019 17:52 22,4 C 22,8 C 21,1 C 71 % 1018,2 hPa 0,0 l/m 0 min 0 min 207 W/m 6,4 km/h (2 Bft) 97,87 %
03.08.2019 17:54 22,4 C 22,8 C 21,1 C 71 % 1018,2 hPa 0,0 l/m 0 min 0 min 187 W/m 12,9 km/h (3 Bft) 97,87 %
03.08.2019 17:56 22,3 C 22,2 C 21,1 C 71 % 1018,2 hPa 0,0 l/m 0 min 0 min 184 W/m 6,4 km/h (2 Bft) 97,83 %
03.08.2019 17:58 22,3 C 22,2 C 21,1 C 72 % 1018,3 hPa 0,0 l/m 0 min 0 min 186 W/m 9,7 km/h (2 Bft) 95,74 %
03.08.2019 18:00 22,2 C 22,2 C 21,1 C 71 % 1018,2 hPa 0,0 l/m 0 min 0 min 191 W/m 9,7 km/h (2 Bft) 97,87 %
03.08.2019 18:02 22,2 C 22,2 C 21,1 C 72 % 1018,2 hPa 0,0 l/m 0 min 0 min 192 W/m 3,2 km/h (1 Bft) 95,74 %
03.08.2019 18:04 22,1 C 22,2 C 21,1 C 71 % 1018,2 hPa 0,0 l/m 0 min 0 min 193 W/m 12,9 km/h (3 Bft) 95,74 %
03.08.2019 18:08 22,0 C 22,2 C 21,1 C 71 % 1018,3 hPa 0,0 l/m 0 min 0 min 199 W/m 12,9 km/h (3 Bft) 98,92 %
03.08.2019 18:10 21,9 C 22,2 C 21,1 C 73 % 1018,3 hPa 0,0 l/m 0 min 0 min 203 W/m 6,4 km/h (2 Bft) 97,87 %
03.08.2019 18:12 21,9 C 22,2 C 21,1 C 72 % 1018,2 hPa 0,0 l/m 0 min 0 min 205 W/m 6,4 km/h (2 Bft) 97,87 %
03.08.2019 18:14 21,9 C 22,2 C 21,1 C 72 % 1018,3 hPa 0,0 l/m 0 min 0 min 199 W/m 9,7 km/h (2 Bft) 97,87 %
03.08.2019 18:16 21,9 C 22,2 C 21,1 C 73 % 1018,2 hPa 0,0 l/m 0 min 0 min 192 W/m 3,2 km/h (1 Bft) 97,87 %
03.08.2019 18:18 21,8 C 22,2 C 21,1 C 74 % 1018,2 hPa 0,0 l/m 0 min 0 min 186 W/m 6,4 km/h (2 Bft) 97,87 %
03.08.2019 18:20 21,9 C 22,2 C 21,1 C 74 % 1018,2 hPa 0,0 l/m 0 min 0 min 178 W/m 9,7 km/h (2 Bft) 97,83 %
03.08.2019 18:22 21,8 C 22,2 C 21,1 C 73 % 1018,2 hPa 0,0 l/m 0 min 0 min 171 W/m 6,4 km/h (2 Bft) 95,74 %
03.08.2019 18:24 21,8 C 22,2 C 21,1 C 72 % 1018,2 hPa 0,0 l/m 0 min 0 min 166 W/m 12,9 km/h (3 Bft) 97,87 %
03.08.2019 18:26 21,7 C 22,2 C 20,6 C 72 % 1018,2 hPa 0,0 l/m 0 min 0 min 167 W/m 6,4 km/h (2 Bft) 97,87 %
03.08.2019 18:28 21,7 C 22,2 C 21,1 C 72 % 1018,2 hPa 0,0 l/m 0 min 0 min 165 W/m 6,4 km/h (2 Bft) 100,00 %
03.08.2019 18:30 21,7 C 21,7 C 20,6 C 72 % 1018,1 hPa 0,0 l/m 0 min 0 min 163 W/m 9,7 km/h (2 Bft) 97,83 %
03.08.2019 18:32 21,6 C 21,7 C 20,6 C 71 % 1018,1 hPa 0,0 l/m 0 min 0 min 163 W/m 6,4 km/h (2 Bft) 97,87 %
03.08.2019 18:34 21,6 C 22,2 C 20,6 C 72 % 1018,2 hPa 0,0 l/m 0 min 0 min 163 W/m 6,4 km/h (2 Bft) 97,87 %
03.08.2019 18:36 21,6 C 22,2 C 20,6 C 73 % 1018,1 hPa 0,0 l/m 0 min 0 min 163 W/m 3,2 km/h (1 Bft) 95,74 %
03.08.2019 18:38 21,6 C 22,2 C 20,6 C 73 % 1018,1 hPa 0,0 l/m 0 min 0 min 161 W/m 6,4 km/h (2 Bft) 97,87 %
03.08.2019 18:40 21,6 C 21,7 C 20,6 C 72 % 1018,0 hPa 0,0 l/m 0 min 0 min 155 W/m 12,9 km/h (3 Bft) 97,87 %
03.08.2019 18:42 21,6 C 21,7 C 20,6 C 72 % 1018,0 hPa 0,0 l/m 0 min 0 min 151 W/m 6,4 km/h (2 Bft) 97,83 %
03.08.2019 18:44 21,5 C 21,7 C 20,6 C 73 % 1018,0 hPa 0,0 l/m 0 min 0 min 151 W/m 9,7 km/h (2 Bft) 97,87 %
03.08.2019 18:46 21,5 C 21,7 C 20,6 C 73 % 1018,0 hPa 0,0 l/m 0 min 0 min 153 W/m 6,4 km/h (2 Bft) 97,87 %
03.08.2019 18:48 21,4 C 21,7 C 20,6 C 73 % 1018,1 hPa 0,0 l/m 0 min 0 min 147 W/m 3,2 km/h (1 Bft) 97,87 %
03.08.2019 18:50 21,4 C 21,7 C 20,6 C 73 % 1018,1 hPa 0,0 l/m 0 min 0 min 140 W/m 3,2 km/h (1 Bft) 97,87 %
03.08.2019 18:52 21,4 C 21,7 C 20,6 C 73 % 1018,1 hPa 0,0 l/m 0 min 0 min 136 W/m 6,4 km/h (2 Bft) 97,87 %
03.08.2019 18:54 21,4 C 21,1 C 20,6 C 73 % 1018,0 hPa 0,0 l/m 0 min 0 min 133 W/m 12,9 km/h (3 Bft) 97,83 %
03.08.2019 18:56 21,4 C 21,1 C 20,6 C 73 % 1018,1 hPa 0,0 l/m 0 min 0 min 131 W/m 3,2 km/h (1 Bft) 97,87 %
03.08.2019 18:58 21,4 C 21,7 C 20,6 C 74 % 1018,1 hPa 0,0 l/m 0 min 0 min 127 W/m 6,4 km/h (2 Bft) 97,87 %
03.08.2019 19:00 21,4 C 21,1 C 20,6 C 73 % 1018,1 hPa 0,0 l/m 0 min 0 min 121 W/m 9,7 km/h (2 Bft) 97,87 %
03.08.2019 19:02 21,3 C 21,1 C 20,6 C 74 % 1018,2 hPa 0,0 l/m 0 min 0 min 118 W/m 6,4 km/h (2 Bft) 97,22 %
03.08.2019 19:04 21,3 C 21,1 C 20,6 C 74 % 1018,1 hPa 0,0 l/m 0 min 0 min 118 W/m 3,2 km/h (1 Bft) 97,87 %
03.08.2019 19:06 21,3 C 21,1 C 20,6 C 75 % 1018,1 hPa 0,0 l/m 0 min 0 min 116 W/m 0,0 km/h (0 Bft) 97,87 %
03.08.2019 19:08 21,3 C 21,1 C 20,6 C 75 % 1018,2 hPa 0,0 l/m 0 min 0 min 112 W/m 3,2 km/h (1 Bft) 97,87 %
03.08.2019 19:10 21,3 C 21,1 C 20,0 C 75 % 1018,2 hPa 0,0 l/m 0 min 0 min 105 W/m 3,2 km/h (1 Bft) 97,83 %
03.08.2019 19:12 21,3 C 21,1 C 20,6 C 75 % 1018,2 hPa 0,0 l/m 0 min 0 min 104 W/m 6,4 km/h (2 Bft) 97,87 %
03.08.2019 19:14 21,3 C 21,1 C 20,0 C 74 % 1018,0 hPa 0,0 l/m 0 min 0 min 101 W/m 9,7 km/h (2 Bft) 95,74 %
03.08.2019 19:16 21,3 C 20,6 C 20,0 C 74 % 1018,1 hPa 0,0 l/m 0 min 0 min 96 W/m 9,7 km/h (2 Bft) 97,87 %
03.08.2019 19:18 21,2 C 20,6 C 20,0 C 74 % 1018,1 hPa 0,0 l/m 0 min 0 min 90 W/m 12,9 km/h (3 Bft) 97,87 %
03.08.2019 19:20 21,2 C 20,6 C 20,0 C 74 % 1018,0 hPa 0,0 l/m 0 min 0 min 84 W/m 12,9 km/h (3 Bft) 95,74 %
03.08.2019 19:22 21,2 C 20,6 C 20,0 C 74 % 1018,1 hPa 0,0 l/m 0 min 0 min 78 W/m 6,4 km/h (2 Bft) 97,83 %
03.08.2019 19:24 21,2 C 20,6 C 20,0 C 75 % 1018,1 hPa 0,0 l/m 0 min 0 min 75 W/m 9,7 km/h (2 Bft) 95,74 %
03.08.2019 19:26 21,1 C 20,6 C 20,0 C 75 % 1018,1 hPa 0,0 l/m 0 min 0 min 74 W/m 19,3 km/h (3 Bft) 95,74 %
03.08.2019 19:28 21,1 C 20,6 C 20,0 C 75 % 1018,1 hPa 0,0 l/m 0 min 0 min 71 W/m 9,7 km/h (2 Bft) 97,87 %
03.08.2019 19:30 21,1 C 20,6 C 20,0 C 75 % 1018,0 hPa 0,0 l/m 0 min 0 min 68 W/m 3,2 km/h (1 Bft) 100,00 %
03.08.2019 19:32 21,1 C 20,6 C 20,0 C 75 % 1018,0 hPa 0,0 l/m 0 min 0 min 64 W/m 6,4 km/h (2 Bft) 97,87 %
03.08.2019 19:34 21,0 C 20,0 C 20,0 C 75 % 1018,0 hPa 0,0 l/m 0 min 0 min 61 W/m 6,4 km/h (2 Bft) 100,00 %
03.08.2019 19:36 21,0 C 20,0 C 20,0 C 75 % 1018,0 hPa 0,0 l/m 0 min 0 min 59 W/m 3,2 km/h (1 Bft) 100,00 %
03.08.2019 19:38 21,0 C 20,0 C 19,4 C 75 % 1018,0 hPa 0,0 l/m 0 min 0 min 57 W/m 9,7 km/h (2 Bft) 97,87 %
03.08.2019 19:40 20,9 C 20,0 C 19,4 C 76 % 1018,0 hPa 0,0 l/m 0 min 0 min 55 W/m 6,4 km/h (2 Bft) 100,00 %
03.08.2019 19:42 20,9 C 20,0 C 19,4 C 76 % 1018,0 hPa 0,0 l/m 0 min 0 min 54 W/m 6,4 km/h (2 Bft) 100,00 %
03.08.2019 19:44 20,9 C 20,0 C 19,4 C 76 % 1018,0 hPa 0,0 l/m 0 min 0 min 52 W/m 6,4 km/h (2 Bft) 97,83 %
03.08.2019 19:46 20,8 C 20,0 C 19,4 C 76 % 1018,0 hPa 0,0 l/m 0 min 0 min 48 W/m 3,2 km/h (1 Bft) 97,87 %
03.08.2019 19:48 20,8 C 20,0 C 19,4 C 76 % 1018,0 hPa 0,0 l/m 0 min 2 min 47 W/m 3,2 km/h (1 Bft) 100,00 %
03.08.2019 19:50 20,8 C 20,0 C 19,4 C 76 % 1018,0 hPa 0,0 l/m 0 min 0 min 46 W/m 6,4 km/h (2 Bft) 100,00 %
03.08.2019 19:52 20,8 C 20,0 C 19,4 C 76 % 1018,0 hPa 0,0 l/m 0 min 0 min 46 W/m 6,4 km/h (2 Bft) 97,87 %
03.08.2019 19:53 20,8 C 20,0 C 19,4 C 76 % 1018,0 hPa 0,0 l/m 0 min 0 min 46 W/m 6,4 km/h (2 Bft) 97,87 %
03.08.2019 19:56 20,7 C 20,0 C 19,4 C 76 % 1018,0 hPa 0,0 l/m 0 min 0 min 46 W/m 3,2 km/h (1 Bft) 97,83 %
03.08.2019 19:58 20,7 C 20,0 C 19,4 C 77 % 1018,0 hPa 0,0 l/m 0 min 0 min 45 W/m 9,7 km/h (2 Bft) 98,11 %
03.08.2019 20:00 20,7 C 20,0 C 19,4 C 77 % 1018,0 hPa 0,0 l/m 0 min 0 min 43 W/m 6,4 km/h (2 Bft) 97,67 %
03.08.2019 20:02 20,7 C 20,0 C 19,4 C 76 % 1018,0 hPa 0,0 l/m 0 min 0 min 40 W/m 6,4 km/h (2 Bft) 98,00 %
03.08.2019 20:04 20,7 C 20,0 C 19,4 C 76 % 1018,1 hPa 0,0 l/m 0 min 0 min 39 W/m 9,7 km/h (2 Bft) 98,00 %
03.08.2019 20:06 20,6 C 19,4 C 19,4 C 76 % 1018,0 hPa 0,0 l/m 0 min 0 min 37 W/m 9,7 km/h (2 Bft) 97,96 %
03.08.2019 20:08 20,6 C 19,4 C 19,4 C 76 % 1018,0 hPa 0,0 l/m 0 min 0 min 39 W/m 3,2 km/h (1 Bft) 97,37 %
03.08.2019 20:10 20,6 C 19,4 C 19,4 C 77 % 1018,0 hPa 0,0 l/m 0 min 0 min 39 W/m 3,2 km/h (1 Bft) 97,92 %
03.08.2019 20:12 20,6 C 19,4 C 19,4 C 76 % 1018,0 hPa 0,0 l/m 0 min 0 min 40 W/m 6,4 km/h (2 Bft) 95,83 %
03.08.2019 20:14 20,6 C 19,4 C 19,4 C 76 % 1018,0 hPa 0,0 l/m 0 min 0 min 40 W/m 6,4 km/h (2 Bft) 96,30 %
03.08.2019 20:16 20,5 C 19,4 C 19,4 C 76 % 1018,0 hPa 0,0 l/m 0 min 0 min 39 W/m 3,2 km/h (1 Bft) 97,37 %
03.08.2019 20:18 20,5 C 19,4 C 18,9 C 76 % 1018,0 hPa 0,0 l/m 0 min 0 min 36 W/m 3,2 km/h (1 Bft) 95,92 %
03.08.2019 20:20 20,5 C 19,4 C 18,9 C 76 % 1018,0 hPa 0,0 l/m 0 min 0 min 33 W/m 0,0 km/h (0 Bft) 95,92 %
03.08.2019 20:22 20,4 C 19,4 C 18,9 C 76 % 1018,0 hPa 0,0 l/m 0 min 0 min 32 W/m 9,7 km/h (2 Bft) 95,83 %
03.08.2019 20:24 20,4 C 19,4 C 18,9 C 76 % 1017,9 hPa 0,0 l/m 0 min 0 min 31 W/m 3,2 km/h (1 Bft) 94,44 %
03.08.2019 20:26 20,4 C 19,4 C 18,9 C 76 % 1017,9 hPa 0,0 l/m 0 min 0 min 28 W/m 3,2 km/h (1 Bft) 96,36 %
03.08.2019 20:28 20,4 C 19,4 C 18,9 C 76 % 1017,9 hPa 0,0 l/m 0 min 0 min 25 W/m 12,9 km/h (3 Bft) 93,88 %
03.08.2019 20:30 20,4 C 19,4 C 18,9 C 76 % 1018,0 hPa 0,0 l/m 0 min 0 min 22 W/m 3,2 km/h (1 Bft) 96,00 %
03.08.2019 20:32 20,4 C 18,9 C 18,9 C 77 % 1017,9 hPa 0,0 l/m 0 min 0 min 20 W/m 3,2 km/h (1 Bft) 91,89 %
03.08.2019 20:34 20,3 C 18,9 C 18,9 C 77 % 1018,0 hPa 0,0 l/m 0 min 0 min 17 W/m 0,0 km/h (0 Bft) 95,83 %
03.08.2019 20:36 20,3 C 18,9 C 18,9 C 77 % 1018,0 hPa 0,0 l/m 0 min 0 min 16 W/m 3,2 km/h (1 Bft) 93,75 %
03.08.2019 20:38 20,3 C 18,9 C 18,9 C 77 % 1018,0 hPa 0,0 l/m 0 min 0 min 14 W/m 3,2 km/h (1 Bft) 94,55 %
03.08.2019 20:40 20,3 C 18,9 C 18,9 C 77 % 1018,0 hPa 0,0 l/m 0 min 0 min 14 W/m 3,2 km/h (1 Bft) 94,74 %
03.08.2019 20:42 20,3 C 18,9 C 18,9 C 77 % 1017,9 hPa 0,0 l/m 0 min 0 min 13 W/m 3,2 km/h (1 Bft) 95,92 %
03.08.2019 20:44 20,2 C 18,9 C 18,9 C 77 % 1017,9 hPa 0,0 l/m 0 min 0 min 12 W/m 0,0 km/h (0 Bft) 93,88 %
03.08.2019 20:46 20,2 C 18,9 C 18,3 C 77 % 1017,9 hPa 0,0 l/m 0 min 0 min 11 W/m 3,2 km/h (1 Bft) 97,92 %
03.08.2019 20:48 20,2 C 18,9 C 18,3 C 77 % 1018,0 hPa 0,0 l/m 0 min 0 min 11 W/m 0,0 km/h (0 Bft) 94,44 %
03.08.2019 20:50 20,2 C 18,9 C 18,3 C 77 % 1017,9 hPa 0,0 l/m 0 min 0 min 9 W/m 0,0 km/h (0 Bft) 94,55 %
03.08.2019 20:52 20,2 C 18,9 C 18,3 C 78 % 1018,0 hPa 0,0 l/m 0 min 0 min 7 W/m 0,0 km/h (0 Bft) 93,88 %
03.08.2019 20:54 20,2 C 18,9 C 18,3 C 78 % 1017,9 hPa 0,0 l/m 0 min 0 min 7 W/m 3,2 km/h (1 Bft) 94,00 %
03.08.2019 20:56 20,1 C 18,9 C 18,3 C 78 % 1017,9 hPa 0,0 l/m 0 min 0 min 6 W/m 6,4 km/h (2 Bft) 97,30 %
03.08.2019 20:58 20,1 C 18,9 C 18,3 C 78 % 1017,9 hPa 0,0 l/m 0 min 0 min 5 W/m 6,4 km/h (2 Bft) 96,00 %
03.08.2019 21:00 20,1 C 18,9 C 18,3 C 77 % 1018,0 hPa 0,0 l/m 0 min 0 min 5 W/m 3,2 km/h (1 Bft) 95,74 %
03.08.2019 21:02 20,1 C 18,9 C 18,3 C 78 % 1017,9 hPa 0,0 l/m 0 min 0 min 5 W/m 0,0 km/h (0 Bft) 97,96 %
03.08.2019 21:04 20,1 C 18,9 C 18,3 C 78 % 1017,9 hPa 0,0 l/m 0 min 0 min 3 W/m 3,2 km/h (1 Bft) 97,87 %
03.08.2019 21:06 20,1 C 18,9 C 18,3 C 78 % 1017,9 hPa 0,0 l/m 0 min 0 min 0 W/m 3,2 km/h (1 Bft) 97,62 %
03.08.2019 21:08 20,0 C 18,9 C 18,3 C 78 % 1017,9 hPa 0,0 l/m 0 min 0 min 0 W/m 3,2 km/h (1 Bft) 98,00 %
03.08.2019 21:10 20,0 C 18,3 C 18,3 C 78 % 1017,9 hPa 0,0 l/m 0 min 0 min 0 W/m 0,0 km/h (0 Bft) 100,00 %
03.08.2019 21:12 19,9 C 18,3 C 18,3 C 78 % 1017,9 hPa 0,0 l/m 0 min 0 min 0 W/m 3,2 km/h (1 Bft) 100,00 %
03.08.2019 21:14 19,9 C 18,3 C 18,3 C 78 % 1018,0 hPa 0,0 l/m 0 min 0 min 0 W/m 0,0 km/h (0 Bft) 97,30 %
03.08.2019 21:16 19,9 C 18,3 C 18,3 C 78 % 1017,9 hPa 0,0 l/m 0 min 0 min 0 W/m 6,4 km/h (2 Bft) 98,11 %
03.08.2019 21:18 19,9 C 18,3 C 18,3 C 78 % 1017,9 hPa 0,0 l/m 0 min 0 min 0 W/m 3,2 km/h (1 Bft) 100,00 %
03.08.2019 21:20 19,9 C 18,3 C 18,3 C 78 % 1018,0 hPa 0,0 l/m 0 min 0 min 0 W/m 3,2 km/h (1 Bft) 100,00 %
03.08.2019 21:22 19,8 C 18,3 C 18,3 C 79 % 1018,0 hPa 0,0 l/m 0 min 0 min 0 W/m 0,0 km/h (0 Bft) 97,37 %
03.08.2019 21:24 19,8 C 18,3 C 18,3 C 79 % 1018,0 hPa 0,0 l/m 0 min 0 min 0 W/m 0,0 km/h (0 Bft) 100,00 %
03.08.2019 21:26 19,8 C 18,3 C 18,3 C 79 % 1018,0 hPa 0,0 l/m 0 min 0 min 0 W/m 0,0 km/h (0 Bft) 100,00 %
03.08.2019 21:28 19,8 C 18,3 C 18,3 C 79 % 1018,0 hPa 0,0 l/m 0 min 0 min 0 W/m 0,0 km/h (0 Bft) 100,00 %
03.08.2019 21:30 19,8 C 18,3 C 17,8 C 79 % 1018,0 hPa 0,0 l/m 0 min 0 min 0 W/m 0,0 km/h (0 Bft) 100,00 %
03.08.2019 21:32 19,7 C 18,3 C 17,8 C 79 % 1018,1 hPa 0,0 l/m 0 min 0 min 0 W/m 6,4 km/h (2 Bft) 100,00 %
03.08.2019 21:34 19,7 C 18,3 C 17,8 C 79 % 1018,1 hPa 0,0 l/m 0 min 0 min 0 W/m 3,2 km/h (1 Bft) 97,96 %
03.08.2019 21:36 19,7 C 18,3 C 17,8 C 79 % 1018,1 hPa 0,0 l/m 0 min 0 min 0 W/m 3,2 km/h (1 Bft) 97,87 %
03.08.2019 21:38 19,7 C 18,3 C 17,8 C 79 % 1018,0 hPa 0,0 l/m 0 min 0 min 0 W/m 3,2 km/h (1 Bft) 97,30 %
03.08.2019 21:40 19,7 C 18,3 C 17,8 C 79 % 1018,0 hPa 0,0 l/m 0 min 0 min 0 W/m 0,0 km/h (0 Bft) 100,00 %
03.08.2019 21:42 19,7 C 18,3 C 17,8 C 79 % 1018,2 hPa 0,0 l/m 0 min 0 min 0 W/m 3,2 km/h (1 Bft) 100,00 %
03.08.2019 21:44 19,6 C 18,3 C 17,8 C 79 % 1018,2 hPa 0,0 l/m 0 min 0 min 0 W/m 0,0 km/h (0 Bft) 100,00 %
03.08.2019 21:46 19,6 C 18,3 C 17,8 C 79 % 1018,1 hPa 0,0 l/m 0 min 0 min 0 W/m 0,0 km/h (0 Bft) 100,00 %
03.08.2019 21:48 19,6 C 18,3 C 17,8 C 79 % 1018,1 hPa 0,0 l/m 0 min 0 min 0 W/m 0,0 km/h (0 Bft) 100,00 %
03.08.2019 21:50 19,6 C 18,3 C 17,8 C 79 % 1018,2 hPa 0,0 l/m 0 min 0 min 0 W/m 0,0 km/h (0 Bft) 100,00 %
03.08.2019 21:52 19,6 C 18,3 C 17,8 C 79 % 1018,2 hPa 0,0 l/m 0 min 0 min 0 W/m 0,0 km/h (0 Bft) 100,00 %
03.08.2019 21:54 19,5 C 17,8 C 17,8 C 79 % 1018,1 hPa 0,0 l/m 0 min 0 min 0 W/m 0,0 km/h (0 Bft) 98,15 %
03.08.2019 21:56 19,5 C 17,8 C 17,8 C 80 % 1018,2 hPa 0,0 l/m 0 min 0 min 0 W/m 0,0 km/h (0 Bft) 97,37 %
03.08.2019 21:58 19,5 C 17,8 C 17,8 C 80 % 1018,2 hPa 0,0 l/m 0 min 0 min 0 W/m 0,0 km/h (0 Bft) 98,00 %
03.08.2019 22:00 19,4 C 18,3 C 17,8 C 80 % 1018,2 hPa 0,0 l/m 0 min 0 min 0 W/m 6,4 km/h (2 Bft) 96,00 %
03.08.2019 22:02 19,4 C 17,8 C 17,8 C 80 % 1018,1 hPa 0,0 l/m 0 min 0 min 0 W/m 0,0 km/h (0 Bft) 97,96 %
03.08.2019 22:04 19,4 C 17,8 C 17,8 C 80 % 1018,2 hPa 0,0 l/m 0 min 0 min 0 W/m 3,2 km/h (1 Bft) 100,00 %
03.08.2019 22:06 19,4 C 17,8 C 17,8 C 80 % 1018,1 hPa 0,0 l/m 0 min 0 min 0 W/m 0,0 km/h (0 Bft) 96,00 %
03.08.2019 22:08 19,4 C 17,8 C 17,8 C 80 % 1018,1 hPa 0,0 l/m 0 min 0 min 0 W/m 3,2 km/h (1 Bft) 98,00 %
03.08.2019 22:10 19,3 C 17,8 C 17,8 C 80 % 1018,0 hPa 0,0 l/m 0 min 0 min 0 W/m 3,2 km/h (1 Bft) 97,87 %
03.08.2019 22:12 19,3 C 17,8 C 17,8 C 80 % 1018,0 hPa 0,0 l/m 0 min 0 min 0 W/m 0,0 km/h (0 Bft) 97,22 %
03.08.2019 22:14 19,3 C 17,8 C 17,8 C 80 % 1018,2 hPa 0,0 l/m 0 min 0 min 0 W/m 0,0 km/h (0 Bft) 98,15 %
03.08.2019 22:16 19,3 C 17,8 C 17,8 C 80 % 1018,2 hPa 0,0 l/m 0 min 0 min 0 W/m 0,0 km/h (0 Bft) 98,00 %
03.08.2019 22:18 19,3 C 17,8 C 17,8 C 80 % 1018,2 hPa 0,0 l/m 0 min 0 min 0 W/m 0,0 km/h (0 Bft) 97,87 %
03.08.2019 22:20 19,3 C 17,8 C 17,8 C 80 % 1018,1 hPa 0,0 l/m 0 min 0 min 0 W/m 3,2 km/h (1 Bft) 98,00 %
03.08.2019 22:22 19,2 C 17,8 C 17,2 C 80 % 1018,1 hPa 0,0 l/m 0 min 0 min 0 W/m 0,0 km/h (0 Bft) 94,59 %
03.08.2019 22:24 19,2 C 17,8 C 17,2 C 80 % 1018,0 hPa 0,0 l/m 0 min 0 min 0 W/m 0,0 km/h (0 Bft) 97,87 %
03.08.2019 22:26 19,2 C 17,8 C 17,2 C 81 % 1018,0 hPa 0,0 l/m 0 min 0 min 0 W/m 0,0 km/h (0 Bft) 97,92 %
03.08.2019 22:28 19,2 C 17,8 C 17,2 C 81 % 1018,0 hPa 0,0 l/m 0 min 0 min 0 W/m 0,0 km/h (0 Bft) 98,18 %
03.08.2019 22:30 19,2 C 17,8 C 17,2 C 81 % 1018,0 hPa 0,0 l/m 0 min 0 min 0 W/m 0,0 km/h (0 Bft) 97,37 %
03.08.2019 22:32 19,2 C 17,2 C 17,2 C 81 % 1018,0 hPa 0,0 l/m 0 min 0 min 0 W/m 0,0 km/h (0 Bft) 96,00 %
03.08.2019 22:34 19,2 C 17,2 C 17,2 C 81 % 1018,0 hPa 0,0 l/m 0 min 0 min 0 W/m 0,0 km/h (0 Bft) 97,92 %
03.08.2019 22:36 19,2 C 17,2 C 17,2 C 81 % 1018,0 hPa 0,0 l/m 0 min 0 min 0 W/m 0,0 km/h (0 Bft) 97,87 %
03.08.2019 22:38 19,1 C 17,2 C 17,2 C 81 % 1018,0 hPa 0,0 l/m 0 min 0 min 0 W/m 0,0 km/h (0 Bft) 95,24 %
03.08.2019 22:40 19,1 C 17,2 C 17,2 C 81 % 1018,0 hPa 0,0 l/m 0 min 0 min 0 W/m 0,0 km/h (0 Bft) 98,00 %
03.08.2019 22:42 19,1 C 17,2 C 16,7 C 81 % 1018,0 hPa 0,0 l/m 0 min 0 min 0 W/m 0,0 km/h (0 Bft) 96,00 %
03.08.2019 22:44 19,1 C 17,2 C 16,7 C 81 % 1018,0 hPa 0,0 l/m 0 min 0 min 0 W/m 0,0 km/h (0 Bft) 97,96 %
03.08.2019 22:46 19,0 C 17,2 C 16,7 C 81 % 1018,0 hPa 0,0 l/m 0 min 0 min 0 W/m 0,0 km/h (0 Bft) 97,22 %
03.08.2019 22:48 19,0 C 17,2 C 16,7 C 81 % 1018,0 hPa 0,0 l/m 0 min 0 min 0 W/m 0,0 km/h (0 Bft) 95,74 %
03.08.2019 22:50 18,9 C 16,7 C 16,7 C 82 % 1017,9 hPa 0,0 l/m 0 min 0 min 0 W/m 0,0 km/h (0 Bft) 94,55 %
03.08.2019 22:52 18,9 C 16,7 C 16,7 C 82 % 1017,9 hPa 0,0 l/m 0 min 0 min 0 W/m 0,0 km/h (0 Bft) 96,00 %
03.08.2019 22:54 18,9 C 16,7 C 16,7 C 82 % 1018,0 hPa 0,0 l/m 0 min 0 min 0 W/m 0,0 km/h (0 Bft) 100,00 %
03.08.2019 22:56 18,9 C 16,7 C 16,7 C 81 % 1018,0 hPa 0,0 l/m 0 min 0 min 0 W/m 0,0 km/h (0 Bft) 97,96 %
03.08.2019 22:58 18,8 C 16,7 C 16,1 C 81 % 1018,0 hPa 0,0 l/m 0 min 0 min 0 W/m 0,0 km/h (0 Bft) 97,96 %
03.08.2019 23:00 18,8 C 16,7 C 16,1 C 81 % 1017,9 hPa 0,0 l/m 0 min 0 min 0 W/m 0,0 km/h (0 Bft) 97,92 %
03.08.2019 23:02 18,8 C 16,7 C 16,1 C 81 % 1017,9 hPa 0,0 l/m 0 min 0 min 0 W/m 0,0 km/h (0 Bft) 97,37 %
03.08.2019 23:04 18,7 C 16,7 C 16,1 C 81 % 1017,9 hPa 0,0 l/m 0 min 0 min 0 W/m 0,0 km/h (0 Bft) 98,00 %
03.08.2019 23:06 18,7 C 16,1 C 16,1 C 81 % 1017,9 hPa 0,0 l/m 0 min 0 min 0 W/m 0,0 km/h (0 Bft) 97,92 %
03.08.2019 23:08 18,7 C 16,1 C 16,1 C 82 % 1017,9 hPa 0,0 l/m 0 min 0 min 0 W/m 0,0 km/h (0 Bft) 96,36 %
03.08.2019 23:10 18,6 C 16,1 C 15,6 C 82 % 1017,9 hPa 0,0 l/m 0 min 0 min 0 W/m 0,0 km/h (0 Bft) 97,37 %
03.08.2019 23:12 18,6 C 16,1 C 15,6 C 82 % 1018,0 hPa 0,0 l/m 0 min 0 min 0 W/m 0,0 km/h (0 Bft) 91,49 %
03.08.2019 23:14 18,5 C 16,1 C 15,6 C 82 % 1017,9 hPa 0,0 l/m 0 min 0 min 0 W/m 0,0 km/h (0 Bft) 95,65 %
03.08.2019 23:16 18,5 C 16,1 C 15,6 C 82 % 1017,9 hPa 0,0 l/m 0 min 0 min 0 W/m 0,0 km/h (0 Bft) 92,00 %
03.08.2019 23:18 18,4 C 15,6 C 15,6 C 81 % 1017,9 hPa 0,0 l/m 0 min 0 min 0 W/m 0,0 km/h (0 Bft) 96,00 %
03.08.2019 23:20 18,4 C 15,6 C 15,6 C 81 % 1017,9 hPa 0,0 l/m 0 min 0 min 0 W/m 0,0 km/h (0 Bft) 93,75 %
03.08.2019 23:22 18,3 C 15,6 C 15,6 C 81 % 1017,9 hPa 0,0 l/m 0 min 0 min 0 W/m 0,0 km/h (0 Bft) 94,44 %
03.08.2019 23:24 18,3 C 15,6 C 15,0 C 82 % 1017,9 hPa 0,0 l/m 0 min 0 min 0 W/m 0,0 km/h (0 Bft) 96,23 %
03.08.2019 23:26 18,2 C 15,6 C 15,0 C 82 % 1017,9 hPa 0,0 l/m 0 min 0 min 0 W/m 0,0 km/h (0 Bft) 94,00 %
03.08.2019 23:28 18,2 C 15,6 C 15,0 C 82 % 1017,9 hPa 0,0 l/m 0 min 0 min 0 W/m 0,0 km/h (0 Bft) 94,00 %
03.08.2019 23:30 18,1 C 15,6 C 15,0 C 82 % 1017,9 hPa 0,0 l/m 0 min 0 min 0 W/m 0,0 km/h (0 Bft) 94,74 %
03.08.2019 23:32 18,1 C 15,6 C 15,0 C 82 % 1017,9 hPa 0,0 l/m 0 min 0 min 0 W/m 0,0 km/h (0 Bft) 95,83 %
03.08.2019 23:34 18,1 C 15,6 C 15,0 C 82 % 1017,9 hPa 0,0 l/m 0 min 0 min 0 W/m 0,0 km/h (0 Bft) 95,65 %
03.08.2019 23:36 18,0 C 15,6 C 15,0 C 82 % 1017,9 hPa 0,0 l/m 0 min 0 min 0 W/m 0,0 km/h (0 Bft) 96,36 %
03.08.2019 23:38 17,9 C 15,6 C 15,0 C 82 % 1017,9 hPa 0,0 l/m 0 min 0 min 0 W/m 0,0 km/h (0 Bft) 94,74 %
03.08.2019 23:40 17,9 C 15,6 C 15,0 C 83 % 1017,9 hPa 0,0 l/m 0 min 0 min 0 W/m 0,0 km/h (0 Bft) 95,74 %
03.08.2019 23:42 17,8 C 15,6 C 15,0 C 83 % 1017,9 hPa 0,0 l/m 0 min 0 min 0 W/m 0,0 km/h (0 Bft) 92,00 %
03.08.2019 23:44 17,8 C 15,0 C 15,0 C 83 % 1017,9 hPa 0,0 l/m 0 min 0 min 0 W/m 0,0 km/h (0 Bft) 91,67 %
03.08.2019 23:46 17,7 C 15,0 C 15,0 C 83 % 1017,9 hPa 0,0 l/m 0 min 0 min 0 W/m 0,0 km/h (0 Bft) 93,75 %
03.08.2019 23:48 17,7 C 15,0 C 15,0 C 83 % 1018,0 hPa 0,0 l/m 0 min 0 min 0 W/m 0,0 km/h (0 Bft) 97,92 %
03.08.2019 23:50 17,7 C 15,0 C 14,4 C 83 % 1018,0 hPa 0,0 l/m 0 min 0 min 0 W/m 0,0 km/h (0 Bft) 97,22 %
03.08.2019 23:52 17,6 C 15,0 C 14,4 C 83 % 1017,9 hPa 0,0 l/m 0 min 0 min 0 W/m 0,0 km/h (0 Bft) 96,30 %
03.08.2019 23:54 17,6 C 15,0 C 14,4 C 83 % 1018,0 hPa 0,0 l/m 0 min 0 min 0 W/m 0,0 km/h (0 Bft) 98,00 %
03.08.2019 23:56 17,5 C 15,0 C 14,4 C 83 % 1018,0 hPa 0,0 l/m 0 min 0 min 0 W/m 0,0 km/h (0 Bft) 96,00 %
03.08.2019 23:58 17,4 C 14,4 C 14,4 C 84 % 1017,9 hPa 0,0 l/m 0 min 0 min 0 W/m 0,0 km/h (0 Bft) 100,00 %
_ Min-Zeit 07:00 23:58 23:50 15:56 00:04 - - - - 00:36 12:48
Minimum _ 16,3 C 14,4 C 14,4 C 70 % 1014,9 hPa - - - - 0,0 km/h (0 Bft) 87,23 %
_ Max-Zeit 17:42 11:16 11:16 02:46 13:52 12:34 09:30 11:52 11:18 16:36 00:46
Maximum _ 22,5 C 29,4 C 28,9 C 99 % 1018,9 hPa 0,2 l/m 2 min 2 min 919 W/m 22,5 km/h
W-NW (4 Bft)
100,00 %
Durchschnitt _ 19,2 C 19,4 C 18,6 C 86 % 1017,4 hPa #0,2 l/m #3:52 h #4 min. 237 W/m 5,9 km/h (2 Bft) 97,39 %
© 2019 W. Hausmann